PWSweather.com
Personal Weather Stations
Station Observations
DL5ARK
SonnebergDE

SonnebergDE

Lat: 50.34904861, Lon: 11.18112087

Elevation: 1214

Station Type: Selfmade

http://www.sumbarg.de

High Low Average
Temperature 47.2°F8.4°C 27.3°F-2.6°C 39.4°F4.1°C
Dew Point 48.3°F9.1°C 32.8°F0.4°C 43.3°F6.3°C
Winds 8.1 mph 13.0 kmh Calm Calm 2.0 mph SW3.2 kmh SW
Wind Gusts 8.1 mph13.0 kmh -- 2.0 mph3.2 kmh
Humidity 93% 80% 87%
Pressure 29.83 in1010.2 mb 29.76 in1007.8 mb -
Precipitation 0.00 in0.0 mm - -
Hour Temp Dew Point Humidity Winds Wind Gusts Pressure Precip Precip Rate Daily Precip Total
12:02 AM 42.1°F5.6°C 46.9°F8.3°C 93% Calm Calm -- 29.83 in1010.2 mb 0.00 in0.0 mm 0.00 in0.0 mm 0.00 in0.0 mm
12:05 AM 42.1°F5.6°C 46.8°F8.2°C 93% 2.4 mph NNW3.9 kmh NNW 2.4 mph3.9 kmh 29.83 in1010.2 mb 0.00 in0.0 mm 0.00 in0.0 mm 0.00 in0.0 mm
12:08 AM 42.1°F5.6°C 46.9°F8.3°C 93% Calm Calm -- 29.83 in1010.2 mb 0.00 in0.0 mm 0.00 in0.0 mm 0.00 in0.0 mm
12:11 AM 42.1°F5.6°C 47.0°F8.3°C 93% 0.8 mph SW1.3 kmh SW 0.8 mph1.3 kmh 29.83 in1010.2 mb 0.00 in0.0 mm 0.00 in0.0 mm 0.00 in0.0 mm
12:14 AM 42.1°F5.6°C 46.8°F8.2°C 93% 4.8 mph NW7.7 kmh NW 4.8 mph7.7 kmh 29.83 in1010.2 mb 0.00 in0.0 mm 0.00 in0.0 mm 0.00 in0.0 mm
12:17 AM 42.1°F5.6°C 46.6°F8.1°C 93% Calm Calm -- 29.83 in1010.2 mb 0.00 in0.0 mm 0.00 in0.0 mm 0.00 in0.0 mm
12:20 AM 42.0°F5.6°C 46.6°F8.1°C 93% 2.4 mph NW3.9 kmh NW 2.4 mph3.9 kmh 29.83 in1010.2 mb 0.00 in0.0 mm 0.00 in0.0 mm 0.00 in0.0 mm
12:23 AM 42.0°F5.6°C 46.8°F8.2°C 93% 0.4 mph NW0.6 kmh NW 0.4 mph0.6 kmh 29.83 in1010.2 mb 0.00 in0.0 mm 0.00 in0.0 mm 0.00 in0.0 mm
12:26 AM 42.1°F5.6°C 46.6°F8.1°C 93% 3.2 mph NW5.1 kmh NW 3.2 mph5.1 kmh 29.83 in1010.2 mb 0.00 in0.0 mm 0.00 in0.0 mm 0.00 in0.0 mm
12:29 AM 42.0°F5.6°C 46.6°F8.1°C 93% 0.8 mph NNW1.3 kmh NNW 0.8 mph1.3 kmh 29.83 in1010.2 mb 0.00 in0.0 mm 0.00 in0.0 mm 0.00 in0.0 mm
12:32 AM 41.9°F5.5°C 46.2°F7.9°C 91% 1.6 mph NW2.6 kmh NW 1.6 mph2.6 kmh 29.83 in1010.2 mb 0.00 in0.0 mm 0.00 in0.0 mm 0.00 in0.0 mm
12:35 AM 42.0°F5.6°C 46.5°F8.1°C 93% 2.4 mph W3.9 kmh W 2.4 mph3.9 kmh 29.83 in1010.2 mb 0.00 in0.0 mm 0.00 in0.0 mm 0.00 in0.0 mm
12:38 AM 42.0°F5.6°C 46.6°F8.1°C 93% 4.4 mph NW7.1 kmh NW 4.5 mph7.2 kmh 29.83 in1010.2 mb 0.00 in0.0 mm 0.00 in0.0 mm 0.00 in0.0 mm
12:41 AM 42.0°F5.6°C 46.3°F7.9°C 93% 1.2 mph WNW1.9 kmh WNW 1.2 mph1.9 kmh 29.83 in1010.2 mb 0.00 in0.0 mm 0.00 in0.0 mm 0.00 in0.0 mm
12:44 AM 41.9°F5.5°C 46.5°F8.1°C 93% 4.0 mph WNW6.4 kmh WNW 4.0 mph6.4 kmh 29.83 in1010.2 mb 0.00 in0.0 mm 0.00 in0.0 mm 0.00 in0.0 mm
12:47 AM 41.9°F5.5°C 46.3°F7.9°C 93% 0.4 mph W0.6 kmh W 0.4 mph0.6 kmh 29.83 in1010.2 mb 0.00 in0.0 mm 0.00 in0.0 mm 0.00 in0.0 mm
12:50 AM 41.8°F5.4°C 46.3°F7.9°C 92% 2.4 mph NW3.9 kmh NW 2.4 mph3.9 kmh 29.83 in1010.2 mb 0.00 in0.0 mm 0.00 in0.0 mm 0.00 in0.0 mm
12:53 AM 41.8°F5.4°C 46.4°F8.0°C 93% 1.2 mph WNW1.9 kmh WNW 1.2 mph1.9 kmh 29.83 in1010.2 mb 0.00 in0.0 mm 0.00 in0.0 mm 0.00 in0.0 mm
12:56 AM 41.8°F5.4°C 46.3°F7.9°C 93% 2.0 mph W3.2 kmh W 2.0 mph3.2 kmh 29.83 in1010.2 mb 0.00 in0.0 mm 0.00 in0.0 mm 0.00 in0.0 mm
12:59 AM 41.8°F5.4°C 46.4°F8.0°C 93% 1.6 mph WNW2.6 kmh WNW 1.6 mph2.6 kmh 29.83 in1010.2 mb 0.00 in0.0 mm 0.00 in0.0 mm 0.00 in0.0 mm
01:02 AM 41.8°F5.4°C 45.8°F7.7°C 91% 3.2 mph NW5.1 kmh NW 3.3 mph5.3 kmh 29.83 in1010.2 mb 0.00 in0.0 mm 0.00 in0.0 mm 0.00 in0.0 mm
01:05 AM 41.8°F5.4°C 46.3°F7.9°C 93% 1.2 mph NW1.9 kmh NW 1.2 mph1.9 kmh 29.82 in1009.8 mb 0.00 in0.0 mm 0.00 in0.0 mm 0.00 in0.0 mm
01:08 AM 41.8°F5.4°C 46.5°F8.1°C 93% 2.4 mph NW3.9 kmh NW 2.4 mph3.9 kmh 29.82 in1009.8 mb 0.00 in0.0 mm 0.00 in0.0 mm 0.00 in0.0 mm
01:11 AM 41.8°F5.4°C 46.1°F7.8°C 93% 4.8 mph W7.7 kmh W 4.9 mph7.9 kmh 29.82 in1009.8 mb 0.00 in0.0 mm 0.00 in0.0 mm 0.00 in0.0 mm
01:14 AM 41.8°F5.4°C 46.3°F7.9°C 93% 1.2 mph WSW1.9 kmh WSW 1.2 mph1.9 kmh 29.82 in1009.8 mb 0.00 in0.0 mm 0.00 in0.0 mm 0.00 in0.0 mm
01:17 AM 41.8°F5.4°C 46.3°F7.9°C 93% 3.6 mph NW5.8 kmh NW 3.6 mph5.8 kmh 29.82 in1009.8 mb 0.00 in0.0 mm 0.00 in0.0 mm 0.00 in0.0 mm
01:20 AM 41.8°F5.4°C 46.4°F8.0°C 93% 2.0 mph NW3.2 kmh NW 2.0 mph3.2 kmh 29.81 in1009.5 mb 0.00 in0.0 mm 0.00 in0.0 mm 0.00 in0.0 mm
01:23 AM 41.8°F5.4°C 46.3°F7.9°C 93% 2.4 mph NNW3.9 kmh NNW 2.4 mph3.9 kmh 29.82 in1009.8 mb 0.00 in0.0 mm 0.00 in0.0 mm 0.00 in0.0 mm
01:26 AM 41.8°F5.4°C 46.3°F7.9°C 93% 5.6 mph NW9.0 kmh NW 5.6 mph9.0 kmh 29.82 in1009.8 mb 0.00 in0.0 mm 0.00 in0.0 mm 0.00 in0.0 mm
01:29 AM 41.8°F5.4°C 46.1°F7.8°C 93% 5.3 mph NNW8.5 kmh NNW 5.3 mph8.5 kmh 29.82 in1009.8 mb 0.00 in0.0 mm 0.00 in0.0 mm 0.00 in0.0 mm
01:32 AM 41.8°F5.4°C 46.2°F7.9°C 93% 2.0 mph WNW3.2 kmh WNW 2.0 mph3.2 kmh 29.82 in1009.8 mb 0.00 in0.0 mm 0.00 in0.0 mm 0.00 in0.0 mm
01:35 AM 41.8°F5.4°C 46.2°F7.9°C 92% 7.6 mph WSW12.2 kmh WSW 7.6 mph12.2 kmh 29.81 in1009.5 mb 0.00 in0.0 mm 0.00 in0.0 mm 0.00 in0.0 mm
01:38 AM 41.8°F5.4°C 46.2°F7.9°C 92% 3.2 mph WSW5.1 kmh WSW 3.3 mph5.3 kmh 29.82 in1009.8 mb 0.00 in0.0 mm 0.00 in0.0 mm 0.00 in0.0 mm
01:41 AM 41.8°F5.4°C 46.4°F8.0°C 93% 3.6 mph WSW5.8 kmh WSW 3.6 mph5.8 kmh 29.82 in1009.8 mb 0.00 in0.0 mm 0.00 in0.0 mm 0.00 in0.0 mm
01:44 AM 41.8°F5.4°C 46.2°F7.9°C 92% 4.0 mph W6.4 kmh W 4.1 mph6.6 kmh 29.81 in1009.5 mb 0.00 in0.0 mm 0.00 in0.0 mm 0.00 in0.0 mm
01:47 AM 41.7°F5.4°C 46.2°F7.9°C 93% 2.4 mph W3.9 kmh W 2.4 mph3.9 kmh 29.81 in1009.5 mb 0.00 in0.0 mm 0.00 in0.0 mm 0.00 in0.0 mm
01:50 AM 41.7°F5.4°C 46.0°F7.8°C 92% 3.6 mph WSW5.8 kmh WSW 3.7 mph6.0 kmh 29.81 in1009.5 mb 0.00 in0.0 mm 0.00 in0.0 mm 0.00 in0.0 mm
01:53 AM 41.7°F5.4°C 46.2°F7.9°C 92% 2.4 mph NNW3.9 kmh NNW 2.4 mph3.9 kmh 29.81 in1009.5 mb 0.00 in0.0 mm 0.00 in0.0 mm 0.00 in0.0 mm
01:56 AM 41.7°F5.4°C 46.1°F7.8°C 92% 0.8 mph WNW1.3 kmh WNW 0.8 mph1.3 kmh 29.81 in1009.5 mb 0.00 in0.0 mm 0.00 in0.0 mm 0.00 in0.0 mm
01:59 AM 41.7°F5.4°C 46.2°F7.9°C 93% 2.0 mph WNW3.2 kmh WNW 2.0 mph3.2 kmh 29.81 in1009.5 mb 0.00 in0.0 mm 0.00 in0.0 mm 0.00 in0.0 mm
02:02 AM 41.7°F5.4°C 46.2°F7.9°C 93% 2.0 mph NW3.2 kmh NW 2.0 mph3.2 kmh 29.81 in1009.5 mb 0.00 in0.0 mm 0.00 in0.0 mm 0.00 in0.0 mm
02:05 AM 41.7°F5.4°C 46.4°F8.0°C 93% 5.2 mph WSW8.4 kmh WSW 5.3 mph8.5 kmh 29.81 in1009.5 mb 0.00 in0.0 mm 0.00 in0.0 mm 0.00 in0.0 mm
02:08 AM 41.7°F5.4°C 46.2°F7.9°C 92% 2.4 mph NNW3.9 kmh NNW 2.4 mph3.9 kmh 29.81 in1009.5 mb 0.00 in0.0 mm 0.00 in0.0 mm 0.00 in0.0 mm
02:11 AM 41.7°F5.4°C 45.9°F7.7°C 91% 5.2 mph W8.4 kmh W 5.2 mph8.4 kmh 29.81 in1009.5 mb 0.00 in0.0 mm 0.00 in0.0 mm 0.00 in0.0 mm
02:14 AM 41.7°F5.4°C 46.2°F7.9°C 93% 4.8 mph W7.7 kmh W 4.9 mph7.9 kmh 29.81 in1009.5 mb 0.00 in0.0 mm 0.00 in0.0 mm 0.00 in0.0 mm
02:17 AM 41.7°F5.4°C 46.4°F8.0°C 93% 5.3 mph W8.5 kmh W 5.3 mph8.5 kmh 29.81 in1009.5 mb 0.00 in0.0 mm 0.00 in0.0 mm 0.00 in0.0 mm
02:20 AM 41.7°F5.4°C 46.1°F7.8°C 92% 1.2 mph WSW1.9 kmh WSW 1.2 mph1.9 kmh 29.81 in1009.5 mb 0.00 in0.0 mm 0.00 in0.0 mm 0.00 in0.0 mm
02:23 AM 41.7°F5.4°C 46.1°F7.8°C 92% 2.8 mph W4.5 kmh W 2.8 mph4.5 kmh 29.81 in1009.5 mb 0.00 in0.0 mm 0.00 in0.0 mm 0.00 in0.0 mm
02:26 AM 41.7°F5.4°C 45.8°F7.7°C 91% 3.2 mph W5.1 kmh W 3.3 mph5.3 kmh 29.81 in1009.5 mb 0.00 in0.0 mm 0.00 in0.0 mm 0.00 in0.0 mm
02:29 AM 41.7°F5.4°C 46.0°F7.8°C 92% 4.0 mph W6.4 kmh W 4.1 mph6.6 kmh 29.81 in1009.5 mb 0.00 in0.0 mm 0.00 in0.0 mm 0.00 in0.0 mm
02:32 AM 41.7°F5.4°C 46.0°F7.8°C 92% 2.4 mph NNW3.9 kmh NNW 2.4 mph3.9 kmh 29.82 in1009.8 mb 0.00 in0.0 mm 0.00 in0.0 mm 0.00 in0.0 mm
02:35 AM 41.6°F5.3°C 46.2°F7.9°C 93% 1.2 mph WSW1.9 kmh WSW 1.2 mph1.9 kmh 29.81 in1009.5 mb 0.00 in0.0 mm 0.00 in0.0 mm 0.00 in0.0 mm
02:38 AM 41.6°F5.3°C 45.5°F7.5°C 91% 2.0 mph WNW3.2 kmh WNW 2.0 mph3.2 kmh 29.81 in1009.5 mb 0.00 in0.0 mm 0.00 in0.0 mm 0.00 in0.0 mm
02:41 AM 41.6°F5.3°C 46.0°F7.8°C 92% 2.0 mph WSW3.2 kmh WSW 2.0 mph3.2 kmh 29.81 in1009.5 mb 0.00 in0.0 mm 0.00 in0.0 mm 0.00 in0.0 mm
02:44 AM 41.6°F5.3°C 45.9°F7.7°C 92% 2.4 mph W3.9 kmh W 2.4 mph3.9 kmh 29.81 in1009.5 mb 0.00 in0.0 mm 0.00 in0.0 mm 0.00 in0.0 mm
02:47 AM 41.6°F5.3°C 45.8°F7.7°C 92% 1.2 mph NW1.9 kmh NW 1.2 mph1.9 kmh 29.81 in1009.5 mb 0.00 in0.0 mm 0.00 in0.0 mm 0.00 in0.0 mm
02:50 AM 41.6°F5.3°C 45.9°F7.7°C 92% 4.0 mph W6.4 kmh W 4.1 mph6.6 kmh 29.81 in1009.5 mb 0.00 in0.0 mm 0.00 in0.0 mm 0.00 in0.0 mm
02:53 AM 41.6°F5.3°C 45.8°F7.7°C 92% 3.6 mph WNW5.8 kmh WNW 3.6 mph5.8 kmh 29.81 in1009.5 mb 0.00 in0.0 mm 0.00 in0.0 mm 0.00 in0.0 mm
02:56 AM 41.6°F5.3°C 46.0°F7.8°C 92% 2.4 mph WSW3.9 kmh WSW 2.4 mph3.9 kmh 29.81 in1009.5 mb 0.00 in0.0 mm 0.00 in0.0 mm 0.00 in0.0 mm
02:59 AM 41.6°F5.3°C 46.0°F7.8°C 92% 3.6 mph NW5.8 kmh NW 3.6 mph5.8 kmh 29.81 in1009.5 mb 0.00 in0.0 mm 0.00 in0.0 mm 0.00 in0.0 mm
03:02 AM 41.6°F5.3°C 45.7°F7.6°C 92% 3.2 mph W5.1 kmh W 3.2 mph5.1 kmh 29.81 in1009.5 mb 0.00 in0.0 mm 0.00 in0.0 mm 0.00 in0.0 mm
03:05 AM 41.5°F5.3°C 45.8°F7.7°C 92% 2.4 mph W3.9 kmh W 2.5 mph4.0 kmh 29.81 in1009.5 mb 0.00 in0.0 mm 0.00 in0.0 mm 0.00 in0.0 mm
03:08 AM 41.5°F5.3°C 45.8°F7.7°C 92% 4.8 mph NNW7.7 kmh NNW 4.8 mph7.7 kmh 29.81 in1009.5 mb 0.00 in0.0 mm 0.00 in0.0 mm 0.00 in0.0 mm
03:11 AM 41.6°F5.3°C 45.8°F7.7°C 92% 1.6 mph W2.6 kmh W 1.6 mph2.6 kmh 29.81 in1009.5 mb 0.00 in0.0 mm 0.00 in0.0 mm 0.00 in0.0 mm
03:14 AM 41.5°F5.3°C 45.8°F7.7°C 92% 3.2 mph W5.1 kmh W 3.2 mph5.1 kmh 29.81 in1009.5 mb 0.00 in0.0 mm 0.00 in0.0 mm 0.00 in0.0 mm
03:17 AM 41.5°F5.3°C 45.7°F7.6°C 92% 1.2 mph WNW1.9 kmh WNW 1.2 mph1.9 kmh 29.81 in1009.5 mb 0.00 in0.0 mm 0.00 in0.0 mm 0.00 in0.0 mm
03:20 AM 41.5°F5.3°C 45.7°F7.6°C 92% 3.2 mph W5.1 kmh W 3.2 mph5.1 kmh 29.81 in1009.5 mb 0.00 in0.0 mm 0.00 in0.0 mm 0.00 in0.0 mm
03:23 AM 41.3°F5.2°C 45.8°F7.7°C 92% 1.6 mph NW2.6 kmh NW 1.6 mph2.6 kmh 29.81 in1009.5 mb 0.00 in0.0 mm 0.00 in0.0 mm 0.00 in0.0 mm
03:26 AM 41.3°F5.2°C 46.0°F7.8°C 92% 4.9 mph NNW7.9 kmh NNW 4.9 mph7.9 kmh 29.81 in1009.5 mb 0.00 in0.0 mm 0.00 in0.0 mm 0.00 in0.0 mm
03:29 AM 41.5°F5.3°C 45.8°F7.7°C 92% 3.2 mph W5.1 kmh W 3.2 mph5.1 kmh 29.81 in1009.5 mb 0.00 in0.0 mm 0.00 in0.0 mm 0.00 in0.0 mm
03:32 AM 41.5°F5.3°C 45.7°F7.6°C 91% 2.8 mph W4.5 kmh W 2.8 mph4.5 kmh 29.81 in1009.5 mb 0.00 in0.0 mm 0.00 in0.0 mm 0.00 in0.0 mm
03:35 AM 41.5°F5.3°C 45.5°F7.5°C 91% 3.2 mph W5.1 kmh W 3.3 mph5.3 kmh 29.81 in1009.5 mb 0.00 in0.0 mm 0.00 in0.0 mm 0.00 in0.0 mm
03:38 AM 41.5°F5.3°C 45.5°F7.5°C 91% 2.0 mph W3.2 kmh W 2.0 mph3.2 kmh 29.81 in1009.5 mb 0.00 in0.0 mm 0.00 in0.0 mm 0.00 in0.0 mm
03:41 AM 41.5°F5.3°C 45.7°F7.6°C 91% 0.8 mph W1.3 kmh W 0.8 mph1.3 kmh 29.81 in1009.5 mb 0.00 in0.0 mm 0.00 in0.0 mm 0.00 in0.0 mm
03:44 AM 41.5°F5.3°C 45.6°F7.6°C 91% 1.6 mph NW2.6 kmh NW 1.6 mph2.6 kmh 29.81 in1009.5 mb 0.00 in0.0 mm 0.00 in0.0 mm 0.00 in0.0 mm
03:47 AM 41.5°F5.3°C 45.6°F7.6°C 91% 5.3 mph NW8.5 kmh NW 5.3 mph8.5 kmh 29.81 in1009.5 mb 0.00 in0.0 mm 0.00 in0.0 mm 0.00 in0.0 mm
03:50 AM 41.5°F5.3°C 45.6°F7.6°C 91% 3.2 mph W5.1 kmh W 3.2 mph5.1 kmh 29.80 in1009.1 mb 0.00 in0.0 mm 0.00 in0.0 mm 0.00 in0.0 mm
03:53 AM 41.5°F5.3°C 45.4°F7.4°C 91% 5.3 mph NW8.5 kmh NW 5.3 mph8.5 kmh 29.81 in1009.5 mb 0.00 in0.0 mm 0.00 in0.0 mm 0.00 in0.0 mm
03:56 AM 41.5°F5.3°C 45.4°F7.4°C 91% 4.4 mph NNW7.1 kmh NNW 4.4 mph7.1 kmh 29.81 in1009.5 mb 0.00 in0.0 mm 0.00 in0.0 mm 0.00 in0.0 mm
03:59 AM 41.6°F5.3°C 45.5°F7.5°C 91% 3.2 mph SW5.1 kmh SW 3.3 mph5.3 kmh 29.80 in1009.1 mb 0.00 in0.0 mm 0.00 in0.0 mm 0.00 in0.0 mm
04:02 AM 41.5°F5.3°C 45.4°F7.4°C 91% 3.6 mph WNW5.8 kmh WNW 3.7 mph6.0 kmh 29.80 in1009.1 mb 0.00 in0.0 mm 0.00 in0.0 mm 0.00 in0.0 mm
04:05 AM 41.3°F5.2°C 45.2°F7.3°C 90% 6.9 mph W11.1 kmh W 6.9 mph11.1 kmh 29.80 in1009.1 mb 0.00 in0.0 mm 0.00 in0.0 mm 0.00 in0.0 mm
04:08 AM 41.5°F5.3°C 45.1°F7.3°C 90% 4.8 mph WNW7.7 kmh WNW 4.9 mph7.9 kmh 29.80 in1009.1 mb 0.00 in0.0 mm 0.00 in0.0 mm 0.00 in0.0 mm
04:11 AM 41.5°F5.3°C 45.5°F7.5°C 91% 3.6 mph WNW5.8 kmh WNW 3.7 mph6.0 kmh 29.80 in1009.1 mb 0.00 in0.0 mm 0.00 in0.0 mm 0.00 in0.0 mm
04:14 AM 41.3°F5.2°C 45.4°F7.4°C 91% 2.4 mph W3.9 kmh W 2.4 mph3.9 kmh 29.80 in1009.1 mb 0.00 in0.0 mm 0.00 in0.0 mm 0.00 in0.0 mm
04:17 AM 41.5°F5.3°C 45.5°F7.5°C 91% 1.6 mph WSW2.6 kmh WSW 1.6 mph2.6 kmh 29.80 in1009.1 mb 0.00 in0.0 mm 0.00 in0.0 mm 0.00 in0.0 mm
04:20 AM 41.3°F5.2°C 45.6°F7.6°C 91% 1.6 mph W2.6 kmh W 1.6 mph2.6 kmh 29.80 in1009.1 mb 0.00 in0.0 mm 0.00 in0.0 mm 0.00 in0.0 mm
04:23 AM 41.3°F5.2°C 45.1°F7.3°C 90% 1.6 mph W2.6 kmh W 1.6 mph2.6 kmh 29.80 in1009.1 mb 0.00 in0.0 mm 0.00 in0.0 mm 0.00 in0.0 mm
04:26 AM 41.3°F5.2°C 45.4°F7.4°C 91% 4.0 mph WNW6.4 kmh WNW 4.1 mph6.6 kmh 29.80 in1009.1 mb 0.00 in0.0 mm 0.00 in0.0 mm 0.00 in0.0 mm
04:29 AM 41.3°F5.2°C 45.2°F7.3°C 91% 2.4 mph WNW3.9 kmh WNW 2.4 mph3.9 kmh 29.80 in1009.1 mb 0.00 in0.0 mm 0.00 in0.0 mm 0.00 in0.0 mm
04:32 AM 41.3°F5.2°C 45.0°F7.2°C 89% 2.0 mph WNW3.2 kmh WNW 2.0 mph3.2 kmh 29.80 in1009.1 mb 0.00 in0.0 mm 0.00 in0.0 mm 0.00 in0.0 mm
04:35 AM 41.3°F5.2°C 45.4°F7.4°C 91% 2.8 mph WSW4.5 kmh WSW 2.9 mph4.7 kmh 29.80 in1009.1 mb 0.00 in0.0 mm 0.00 in0.0 mm 0.00 in0.0 mm
04:38 AM 41.3°F5.2°C 44.9°F7.2°C 89% 2.0 mph SW3.2 kmh SW 2.0 mph3.2 kmh 29.79 in1008.8 mb 0.00 in0.0 mm 0.00 in0.0 mm 0.00 in0.0 mm
04:41 AM 41.3°F5.2°C 45.2°F7.3°C 91% 3.6 mph W5.8 kmh W 3.7 mph6.0 kmh 29.80 in1009.1 mb 0.00 in0.0 mm 0.00 in0.0 mm 0.00 in0.0 mm
04:44 AM 41.3°F5.2°C 45.4°F7.4°C 91% 2.4 mph WSW3.9 kmh WSW 2.4 mph3.9 kmh 29.80 in1009.1 mb 0.00 in0.0 mm 0.00 in0.0 mm 0.00 in0.0 mm
04:47 AM 41.3°F5.2°C 45.3°F7.4°C 90% 2.4 mph W3.9 kmh W 2.4 mph3.9 kmh 29.79 in1008.8 mb 0.00 in0.0 mm 0.00 in0.0 mm 0.00 in0.0 mm
04:50 AM 41.3°F5.2°C 45.1°F7.3°C 90% 2.0 mph WNW3.2 kmh WNW 2.0 mph3.2 kmh 29.79 in1008.8 mb 0.00 in0.0 mm 0.00 in0.0 mm 0.00 in0.0 mm
04:53 AM 41.2°F5.1°C 45.3°F7.4°C 91% 0.8 mph W1.3 kmh W 0.8 mph1.3 kmh 29.80 in1009.1 mb 0.00 in0.0 mm 0.00 in0.0 mm 0.00 in0.0 mm
04:56 AM 41.3°F5.2°C 45.7°F7.6°C 91% 0.4 mph WSW0.6 kmh WSW 0.4 mph0.6 kmh 29.79 in1008.8 mb 0.00 in0.0 mm 0.00 in0.0 mm 0.00 in0.0 mm
04:59 AM 41.2°F5.1°C 45.5°F7.5°C 91% Calm Calm -- 29.79 in1008.8 mb 0.00 in0.0 mm 0.00 in0.0 mm 0.00 in0.0 mm
05:05 AM 41.2°F5.1°C 45.4°F7.4°C 90% 1.2 mph W1.9 kmh W 1.2 mph1.9 kmh 29.79 in1008.8 mb 0.00 in0.0 mm 0.00 in0.0 mm 0.00 in0.0 mm
05:08 AM 41.3°F5.2°C 45.2°F7.3°C 90% 3.2 mph NW5.1 kmh NW 3.3 mph5.3 kmh 29.79 in1008.8 mb 0.00 in0.0 mm 0.00 in0.0 mm 0.00 in0.0 mm
05:11 AM 41.2°F5.1°C 45.2°F7.3°C 90% 4.0 mph W6.4 kmh W 4.0 mph6.4 kmh 29.79 in1008.8 mb 0.00 in0.0 mm 0.00 in0.0 mm 0.00 in0.0 mm
05:14 AM 41.2°F5.1°C 45.3°F7.4°C 91% 3.2 mph NNW5.1 kmh NNW 3.3 mph5.3 kmh 29.79 in1008.8 mb 0.00 in0.0 mm 0.00 in0.0 mm 0.00 in0.0 mm
05:17 AM 41.3°F5.2°C 45.3°F7.4°C 90% 6.5 mph W10.5 kmh W 6.5 mph10.5 kmh 29.79 in1008.8 mb 0.00 in0.0 mm 0.00 in0.0 mm 0.00 in0.0 mm
05:20 AM 41.2°F5.1°C 45.2°F7.3°C 90% 6.9 mph NNW11.1 kmh NNW 6.9 mph11.1 kmh 29.79 in1008.8 mb 0.00 in0.0 mm 0.00 in0.0 mm 0.00 in0.0 mm
05:23 AM 41.1°F5.1°C 45.5°F7.5°C 91% 7.3 mph WSW11.7 kmh WSW 7.3 mph11.7 kmh 29.79 in1008.8 mb 0.00 in0.0 mm 0.00 in0.0 mm 0.00 in0.0 mm
05:26 AM 41.3°F5.2°C 45.1°F7.3°C 90% 7.3 mph W11.7 kmh W 7.3 mph11.7 kmh 29.79 in1008.8 mb 0.00 in0.0 mm 0.00 in0.0 mm 0.00 in0.0 mm
05:29 AM 41.2°F5.1°C 45.1°F7.3°C 90% 8.1 mph W13.0 kmh W 8.1 mph13.0 kmh 29.79 in1008.8 mb 0.00 in0.0 mm 0.00 in0.0 mm 0.00 in0.0 mm
05:32 AM 41.2°F5.1°C 44.8°F7.1°C 89% 4.8 mph W7.7 kmh W 4.9 mph7.9 kmh 29.78 in1008.5 mb 0.00 in0.0 mm 0.00 in0.0 mm 0.00 in0.0 mm
05:35 AM 41.3°F5.2°C 45.3°F7.4°C 91% 3.2 mph W5.1 kmh W 3.3 mph5.3 kmh 29.79 in1008.8 mb 0.00 in0.0 mm 0.00 in0.0 mm 0.00 in0.0 mm
05:41 AM 41.5°F5.3°C 45.1°F7.3°C 90% 5.7 mph WSW9.2 kmh WSW 5.7 mph9.2 kmh 29.79 in1008.8 mb 0.00 in0.0 mm 0.00 in0.0 mm 0.00 in0.0 mm
05:44 AM 41.6°F5.3°C 45.3°F7.4°C 90% 2.0 mph NNW3.2 kmh NNW 2.0 mph3.2 kmh 29.79 in1008.8 mb 0.00 in0.0 mm 0.00 in0.0 mm 0.00 in0.0 mm
05:47 AM 41.5°F5.3°C 45.2°F7.3°C 91% 3.2 mph WNW5.1 kmh WNW 3.3 mph5.3 kmh 29.78 in1008.5 mb 0.00 in0.0 mm 0.00 in0.0 mm 0.00 in0.0 mm
05:50 AM 41.6°F5.3°C 45.2°F7.3°C 90% 5.1 mph W8.2 kmh W 5.2 mph8.4 kmh 29.79 in1008.8 mb 0.00 in0.0 mm 0.00 in0.0 mm 0.00 in0.0 mm
05:53 AM 41.5°F5.3°C 45.2°F7.3°C 90% 5.6 mph NNW9.0 kmh NNW 5.7 mph9.2 kmh 29.79 in1008.8 mb 0.00 in0.0 mm 0.00 in0.0 mm 0.00 in0.0 mm
05:56 AM 41.6°F5.3°C 44.8°F7.1°C 89% 3.2 mph WNW5.1 kmh WNW 3.3 mph5.3 kmh 29.79 in1008.8 mb 0.00 in0.0 mm 0.00 in0.0 mm 0.00 in0.0 mm
05:59 AM 41.5°F5.3°C 45.1°F7.3°C 90% 0.8 mph NW1.3 kmh NW 0.8 mph1.3 kmh 29.79 in1008.8 mb 0.00 in0.0 mm 0.00 in0.0 mm 0.00 in0.0 mm
06:02 AM 41.5°F5.3°C 44.9°F7.2°C 89% 1.6 mph NNW2.6 kmh NNW 1.6 mph2.6 kmh 29.79 in1008.8 mb 0.00 in0.0 mm 0.00 in0.0 mm 0.00 in0.0 mm
06:05 AM 41.5°F5.3°C 45.2°F7.3°C 90% 1.6 mph WNW2.6 kmh WNW 1.6 mph2.6 kmh 29.79 in1008.8 mb 0.00 in0.0 mm 0.00 in0.0 mm 0.00 in0.0 mm
06:08 AM 41.5°F5.3°C 45.3°F7.4°C 90% 2.8 mph W4.5 kmh W 2.8 mph4.5 kmh 29.79 in1008.8 mb 0.00 in0.0 mm 0.00 in0.0 mm 0.00 in0.0 mm
06:11 AM 41.5°F5.3°C 45.3°F7.4°C 90% Calm Calm -- 29.79 in1008.8 mb 0.00 in0.0 mm 0.00 in0.0 mm 0.00 in0.0 mm
06:14 AM 41.5°F5.3°C 44.7°F7.1°C 89% 0.4 mph NW0.6 kmh NW 0.4 mph0.6 kmh 29.78 in1008.5 mb 0.00 in0.0 mm 0.00 in0.0 mm 0.00 in0.0 mm
06:17 AM 41.6°F5.3°C 45.3°F7.4°C 90% 4.0 mph NW6.4 kmh NW 4.0 mph6.4 kmh 29.79 in1008.8 mb 0.00 in0.0 mm 0.00 in0.0 mm 0.00 in0.0 mm
06:20 AM 41.6°F5.3°C 45.3°F7.4°C 90% 0.4 mph W0.6 kmh W 0.4 mph0.6 kmh 29.79 in1008.8 mb 0.00 in0.0 mm 0.00 in0.0 mm 0.00 in0.0 mm
06:23 AM 41.6°F5.3°C 45.1°F7.3°C 90% 1.2 mph W1.9 kmh W 1.2 mph1.9 kmh 29.78 in1008.5 mb 0.00 in0.0 mm 0.00 in0.0 mm 0.00 in0.0 mm
06:26 AM 41.7°F5.4°C 45.3°F7.4°C 90% 0.8 mph W1.3 kmh W 0.8 mph1.3 kmh 29.78 in1008.5 mb 0.00 in0.0 mm 0.00 in0.0 mm 0.00 in0.0 mm
06:29 AM 41.6°F5.3°C 45.3°F7.4°C 90% 0.4 mph NW0.6 kmh NW 0.4 mph0.6 kmh 29.79 in1008.8 mb 0.00 in0.0 mm 0.00 in0.0 mm 0.00 in0.0 mm
06:32 AM 41.6°F5.3°C 45.4°F7.4°C 90% 4.0 mph W6.4 kmh W 4.0 mph6.4 kmh 29.78 in1008.5 mb 0.00 in0.0 mm 0.00 in0.0 mm 0.00 in0.0 mm
06:35 AM 41.6°F5.3°C 45.0°F7.2°C 89% 5.2 mph NNW8.4 kmh NNW 5.2 mph8.4 kmh 29.79 in1008.8 mb 0.00 in0.0 mm 0.00 in0.0 mm 0.00 in0.0 mm
06:38 AM 41.7°F5.4°C 45.4°F7.4°C 90% 4.5 mph WSW7.2 kmh WSW 4.5 mph7.2 kmh 29.79 in1008.8 mb 0.00 in0.0 mm 0.00 in0.0 mm 0.00 in0.0 mm
06:41 AM 41.6°F5.3°C 45.0°F7.2°C 90% 1.2 mph W1.9 kmh W 1.2 mph1.9 kmh 29.79 in1008.8 mb 0.00 in0.0 mm 0.00 in0.0 mm 0.00 in0.0 mm
06:44 AM 41.6°F5.3°C 45.3°F7.4°C 90% 0.4 mph WNW0.6 kmh WNW 0.4 mph0.6 kmh 29.79 in1008.8 mb 0.00 in0.0 mm 0.00 in0.0 mm 0.00 in0.0 mm
06:47 AM 41.7°F5.4°C 45.3°F7.4°C 90% 2.4 mph NNW3.9 kmh NNW 2.4 mph3.9 kmh 29.79 in1008.8 mb 0.00 in0.0 mm 0.00 in0.0 mm 0.00 in0.0 mm
06:50 AM 41.7°F5.4°C 45.2°F7.3°C 89% 1.2 mph NW1.9 kmh NW 1.2 mph1.9 kmh 29.79 in1008.8 mb 0.00 in0.0 mm 0.00 in0.0 mm 0.00 in0.0 mm
06:53 AM 41.7°F5.4°C 45.3°F7.4°C 90% 3.6 mph NNW5.8 kmh NNW 3.7 mph6.0 kmh 29.79 in1008.8 mb 0.00 in0.0 mm 0.00 in0.0 mm 0.00 in0.0 mm
06:56 AM 41.7°F5.4°C 45.4°F7.4°C 90% 1.5 mph W2.4 kmh W 1.6 mph2.6 kmh 29.79 in1008.8 mb 0.00 in0.0 mm 0.00 in0.0 mm 0.00 in0.0 mm
06:59 AM 41.7°F5.4°C 45.3°F7.4°C 90% 1.2 mph W1.9 kmh W 1.2 mph1.9 kmh 29.78 in1008.5 mb 0.00 in0.0 mm 0.00 in0.0 mm 0.00 in0.0 mm
07:02 AM 41.7°F5.4°C 45.4°F7.4°C 90% 2.8 mph W4.5 kmh W 2.8 mph4.5 kmh 29.79 in1008.8 mb 0.00 in0.0 mm 0.00 in0.0 mm 0.00 in0.0 mm
07:05 AM 41.8°F5.4°C 45.5°F7.5°C 90% 1.6 mph W2.6 kmh W 1.6 mph2.6 kmh 29.79 in1008.8 mb 0.00 in0.0 mm 0.00 in0.0 mm 0.00 in0.0 mm
07:08 AM 41.8°F5.4°C 45.4°F7.4°C 90% 1.2 mph WSW1.9 kmh WSW 1.2 mph1.9 kmh 29.79 in1008.8 mb 0.00 in0.0 mm 0.00 in0.0 mm 0.00 in0.0 mm
07:11 AM 41.8°F5.4°C 45.5°F7.5°C 90% 2.8 mph NW4.5 kmh NW 2.9 mph4.7 kmh 29.79 in1008.8 mb 0.00 in0.0 mm 0.00 in0.0 mm 0.00 in0.0 mm
07:14 AM 41.8°F5.4°C 45.3°F7.4°C 90% 0.8 mph SW1.3 kmh SW 0.8 mph1.3 kmh 29.79 in1008.8 mb 0.00 in0.0 mm 0.00 in0.0 mm 0.00 in0.0 mm
07:17 AM 41.8°F5.4°C 45.4°F7.4°C 90% 0.4 mph W0.6 kmh W 0.4 mph0.6 kmh 29.79 in1008.8 mb 0.00 in0.0 mm 0.00 in0.0 mm 0.00 in0.0 mm
07:20 AM 41.7°F5.4°C 45.4°F7.4°C 90% Calm Calm -- 29.79 in1008.8 mb 0.00 in0.0 mm 0.00 in0.0 mm 0.00 in0.0 mm
07:23 AM 41.8°F5.4°C 45.6°F7.6°C 90% Calm Calm -- 29.79 in1008.8 mb 0.00 in0.0 mm 0.00 in0.0 mm 0.00 in0.0 mm
07:26 AM 41.8°F5.4°C 45.5°F7.5°C 90% 0.8 mph WSW1.3 kmh WSW 0.8 mph1.3 kmh 29.79 in1008.8 mb 0.00 in0.0 mm 0.00 in0.0 mm 0.00 in0.0 mm
07:29 AM 41.7°F5.4°C 45.5°F7.5°C 90% 2.4 mph NW3.9 kmh NW 2.4 mph3.9 kmh 29.79 in1008.8 mb 0.00 in0.0 mm 0.00 in0.0 mm 0.00 in0.0 mm
07:32 AM 41.7°F5.4°C 45.4°F7.4°C 90% 0.4 mph NW0.6 kmh NW 0.4 mph0.6 kmh 29.79 in1008.8 mb 0.00 in0.0 mm 0.00 in0.0 mm 0.00 in0.0 mm
07:35 AM 41.8°F5.4°C 45.2°F7.3°C 90% 0.4 mph NNW0.6 kmh NNW 0.4 mph0.6 kmh 29.80 in1009.1 mb 0.00 in0.0 mm 0.00 in0.0 mm 0.00 in0.0 mm
07:38 AM 41.8°F5.4°C 45.5°F7.5°C 90% 0.8 mph W1.3 kmh W 0.8 mph1.3 kmh 29.79 in1008.8 mb 0.00 in0.0 mm 0.00 in0.0 mm 0.00 in0.0 mm
07:41 AM 41.8°F5.4°C 45.5°F7.5°C 90% Calm Calm -- 29.80 in1009.1 mb 0.00 in0.0 mm 0.00 in0.0 mm 0.00 in0.0 mm
07:44 AM 41.8°F5.4°C 45.3°F7.4°C 90% 1.2 mph NW1.9 kmh NW 1.2 mph1.9 kmh 29.80 in1009.1 mb 0.00 in0.0 mm 0.00 in0.0 mm 0.00 in0.0 mm
07:47 AM 41.8°F5.4°C 45.4°F7.4°C 90% 4.8 mph WSW7.7 kmh WSW 4.9 mph7.9 kmh 29.80 in1009.1 mb 0.00 in0.0 mm 0.00 in0.0 mm 0.00 in0.0 mm
07:50 AM 41.9°F5.5°C 45.4°F7.4°C 90% 4.0 mph WSW6.4 kmh WSW 4.1 mph6.6 kmh 29.79 in1008.8 mb 0.00 in0.0 mm 0.00 in0.0 mm 0.00 in0.0 mm
07:53 AM 41.9°F5.5°C 45.5°F7.5°C 90% 2.8 mph WNW4.5 kmh WNW 2.8 mph4.5 kmh 29.80 in1009.1 mb 0.00 in0.0 mm 0.00 in0.0 mm 0.00 in0.0 mm
07:56 AM 41.9°F5.5°C 45.6°F7.6°C 90% 2.4 mph NW3.9 kmh NW 2.4 mph3.9 kmh 29.80 in1009.1 mb 0.00 in0.0 mm 0.00 in0.0 mm 0.00 in0.0 mm
07:59 AM 41.9°F5.5°C 45.2°F7.3°C 90% 0.4 mph NNW0.6 kmh NNW 0.4 mph0.6 kmh 29.80 in1009.1 mb 0.00 in0.0 mm 0.00 in0.0 mm 0.00 in0.0 mm
08:05 AM 41.9°F5.5°C 45.4°F7.4°C 90% 3.6 mph WNW5.8 kmh WNW 3.7 mph6.0 kmh 29.80 in1009.1 mb 0.00 in0.0 mm 0.00 in0.0 mm 0.00 in0.0 mm
08:08 AM 41.9°F5.5°C 45.5°F7.5°C 90% 0.8 mph NNW1.3 kmh NNW 0.8 mph1.3 kmh 29.80 in1009.1 mb 0.00 in0.0 mm 0.00 in0.0 mm 0.00 in0.0 mm
08:11 AM 41.9°F5.5°C 45.7°F7.6°C 90% 2.4 mph NW3.9 kmh NW 2.4 mph3.9 kmh 29.80 in1009.1 mb 0.00 in0.0 mm 0.00 in0.0 mm 0.00 in0.0 mm
08:14 AM 41.9°F5.5°C 45.5°F7.5°C 90% 0.8 mph WNW1.3 kmh WNW 0.8 mph1.3 kmh 29.80 in1009.1 mb 0.00 in0.0 mm 0.00 in0.0 mm 0.00 in0.0 mm
08:17 AM 41.9°F5.5°C 45.6°F7.6°C 90% 2.4 mph WNW3.9 kmh WNW 2.4 mph3.9 kmh 29.80 in1009.1 mb 0.00 in0.0 mm 0.00 in0.0 mm 0.00 in0.0 mm
08:20 AM 42.0°F5.6°C 45.5°F7.5°C 90% 3.5 mph WNW5.6 kmh WNW 3.5 mph5.6 kmh 29.80 in1009.1 mb 0.00 in0.0 mm 0.00 in0.0 mm 0.00 in0.0 mm
08:26 AM 42.1°F5.6°C 45.3°F7.4°C 90% 1.2 mph NW1.9 kmh NW 1.2 mph1.9 kmh 29.79 in1008.8 mb 0.00 in0.0 mm 0.00 in0.0 mm 0.00 in0.0 mm
08:29 AM 42.1°F5.6°C 45.5°F7.5°C 90% 2.4 mph WNW3.9 kmh WNW 2.4 mph3.9 kmh 29.80 in1009.1 mb 0.00 in0.0 mm 0.00 in0.0 mm 0.00 in0.0 mm
08:32 AM 42.2°F5.7°C 45.5°F7.5°C 90% 0.4 mph WNW0.6 kmh WNW 0.4 mph0.6 kmh 29.80 in1009.1 mb 0.00 in0.0 mm 0.00 in0.0 mm 0.00 in0.0 mm
08:35 AM 42.2°F5.7°C 45.6°F7.6°C 90% 1.2 mph W1.9 kmh W 1.2 mph1.9 kmh 29.80 in1009.1 mb 0.00 in0.0 mm 0.00 in0.0 mm 0.00 in0.0 mm
08:38 AM 42.4°F5.8°C 45.5°F7.5°C 90% 0.8 mph W1.3 kmh W 0.8 mph1.3 kmh 29.80 in1009.1 mb 0.00 in0.0 mm 0.00 in0.0 mm 0.00 in0.0 mm
08:41 AM 42.4°F5.8°C 45.9°F7.7°C 90% 1.2 mph W1.9 kmh W 1.2 mph1.9 kmh 29.80 in1009.1 mb 0.00 in0.0 mm 0.00 in0.0 mm 0.00 in0.0 mm
08:44 AM 42.4°F5.8°C 45.9°F7.7°C 90% 0.8 mph WNW1.3 kmh WNW 0.8 mph1.3 kmh 29.80 in1009.1 mb 0.00 in0.0 mm 0.00 in0.0 mm 0.00 in0.0 mm
08:47 AM 42.4°F5.8°C 45.8°F7.7°C 90% 2.0 mph WNW3.2 kmh WNW 2.0 mph3.2 kmh 29.80 in1009.1 mb 0.00 in0.0 mm 0.00 in0.0 mm 0.00 in0.0 mm
08:50 AM 42.5°F5.8°C 45.8°F7.7°C 90% 2.0 mph W3.2 kmh W 2.0 mph3.2 kmh 29.80 in1009.1 mb 0.00 in0.0 mm 0.00 in0.0 mm 0.00 in0.0 mm
08:53 AM 42.4°F5.8°C 45.9°F7.7°C 90% 4.8 mph WSW7.7 kmh WSW 4.8 mph7.7 kmh 29.80 in1009.1 mb 0.00 in0.0 mm 0.00 in0.0 mm 0.00 in0.0 mm
08:56 AM 42.4°F5.8°C 45.6°F7.6°C 90% 1.6 mph WNW2.6 kmh WNW 1.6 mph2.6 kmh 29.79 in1008.8 mb 0.00 in0.0 mm 0.00 in0.0 mm 0.00 in0.0 mm
08:59 AM 42.5°F5.8°C 45.5°F7.5°C 89% 4.4 mph W7.1 kmh W 4.5 mph7.2 kmh 29.79 in1008.8 mb 0.00 in0.0 mm 0.00 in0.0 mm 0.00 in0.0 mm
09:02 AM 42.5°F5.8°C 45.5°F7.5°C 90% 6.9 mph W11.1 kmh W 6.9 mph11.1 kmh 29.79 in1008.8 mb 0.00 in0.0 mm 0.00 in0.0 mm 0.00 in0.0 mm
09:05 AM 42.5°F5.8°C 45.8°F7.7°C 90% 3.6 mph NNW5.8 kmh NNW 3.6 mph5.8 kmh 29.80 in1009.1 mb 0.00 in0.0 mm 0.00 in0.0 mm 0.00 in0.0 mm
09:08 AM 42.5°F5.8°C 45.9°F7.7°C 91% 4.4 mph WSW7.1 kmh WSW 4.4 mph7.1 kmh 29.80 in1009.1 mb 0.00 in0.0 mm 0.00 in0.0 mm 0.00 in0.0 mm
09:11 AM 42.5°F5.8°C 45.9°F7.7°C 90% 3.1 mph WSW5.0 kmh WSW 3.1 mph5.0 kmh 29.80 in1009.1 mb 0.00 in0.0 mm 0.00 in0.0 mm 0.00 in0.0 mm
09:14 AM 42.6°F5.9°C 45.3°F7.4°C 89% 3.6 mph NNW5.8 kmh NNW 3.7 mph6.0 kmh 29.80 in1009.1 mb 0.00 in0.0 mm 0.00 in0.0 mm 0.00 in0.0 mm
09:17 AM 42.6°F5.9°C 46.1°F7.8°C 91% 3.2 mph W5.1 kmh W 3.3 mph5.3 kmh 29.80 in1009.1 mb 0.00 in0.0 mm 0.00 in0.0 mm 0.00 in0.0 mm
09:20 AM 42.6°F5.9°C 46.1°F7.8°C 90% 4.8 mph W7.7 kmh W 4.9 mph7.9 kmh 29.80 in1009.1 mb 0.00 in0.0 mm 0.00 in0.0 mm 0.00 in0.0 mm
09:23 AM 42.7°F5.9°C 46.1°F7.8°C 90% 2.4 mph W3.9 kmh W 2.4 mph3.9 kmh 29.80 in1009.1 mb 0.00 in0.0 mm 0.00 in0.0 mm 0.00 in0.0 mm
09:26 AM 42.7°F5.9°C 45.7°F7.6°C 90% 6.4 mph W10.3 kmh W 6.4 mph10.3 kmh 29.80 in1009.1 mb 0.00 in0.0 mm 0.00 in0.0 mm 0.00 in0.0 mm
09:29 AM 42.8°F6.0°C 46.2°F7.9°C 90% 2.4 mph W3.9 kmh W 2.4 mph3.9 kmh 29.80 in1009.1 mb 0.00 in0.0 mm 0.00 in0.0 mm 0.00 in0.0 mm
09:32 AM 42.8°F6.0°C 46.0°F7.8°C 90% 3.2 mph WSW5.1 kmh WSW 3.2 mph5.1 kmh 29.80 in1009.1 mb 0.00 in0.0 mm 0.00 in0.0 mm 0.00 in0.0 mm
09:35 AM 42.8°F6.0°C 45.8°F7.7°C 89% 4.4 mph WNW7.1 kmh WNW 4.4 mph7.1 kmh 29.80 in1009.1 mb 0.00 in0.0 mm 0.00 in0.0 mm 0.00 in0.0 mm
09:38 AM 42.9°F6.1°C 46.0°F7.8°C 90% 2.0 mph NW3.2 kmh NW 2.0 mph3.2 kmh 29.80 in1009.1 mb 0.00 in0.0 mm 0.00 in0.0 mm 0.00 in0.0 mm
09:41 AM 43.1°F6.2°C 46.4°F8.0°C 91% 4.8 mph W7.7 kmh W 4.9 mph7.9 kmh 29.80 in1009.1 mb 0.00 in0.0 mm 0.00 in0.0 mm 0.00 in0.0 mm
09:44 AM 43.0°F6.1°C 46.3°F7.9°C 91% 4.0 mph W6.4 kmh W 4.0 mph6.4 kmh 29.80 in1009.1 mb 0.00 in0.0 mm 0.00 in0.0 mm 0.00 in0.0 mm
09:47 AM 43.0°F6.1°C 46.3°F7.9°C 90% 1.6 mph WNW2.6 kmh WNW 1.6 mph2.6 kmh 29.81 in1009.5 mb 0.00 in0.0 mm 0.00 in0.0 mm 0.00 in0.0 mm
09:50 AM 42.9°F6.1°C 46.2°F7.9°C 90% 1.2 mph NNW1.9 kmh NNW 1.2 mph1.9 kmh 29.81 in1009.5 mb 0.00 in0.0 mm 0.00 in0.0 mm 0.00 in0.0 mm
09:53 AM 43.0°F6.1°C 46.0°F7.8°C 90% 1.2 mph NNW1.9 kmh NNW 1.2 mph1.9 kmh 29.81 in1009.5 mb 0.00 in0.0 mm 0.00 in0.0 mm 0.00 in0.0 mm
09:56 AM 43.0°F6.1°C 46.0°F7.8°C 90% 3.2 mph W5.1 kmh W 3.2 mph5.1 kmh 29.81 in1009.5 mb 0.00 in0.0 mm 0.00 in0.0 mm 0.00 in0.0 mm
09:59 AM 43.3°F6.3°C 45.8°F7.7°C 89% 3.6 mph W5.8 kmh W 3.7 mph6.0 kmh 29.81 in1009.5 mb 0.00 in0.0 mm 0.00 in0.0 mm 0.00 in0.0 mm
10:02 AM 43.4°F6.3°C 46.4°F8.0°C 90% 3.6 mph W5.8 kmh W 3.6 mph5.8 kmh 29.81 in1009.5 mb 0.00 in0.0 mm 0.00 in0.0 mm 0.00 in0.0 mm
10:05 AM 43.5°F6.4°C 46.4°F8.0°C 90% 6.1 mph W9.8 kmh W 6.1 mph9.8 kmh 29.81 in1009.5 mb 0.00 in0.0 mm 0.00 in0.0 mm 0.00 in0.0 mm
10:08 AM 43.7°F6.5°C 46.2°F7.9°C 90% 3.8 mph NNW6.1 kmh NNW 3.9 mph6.3 kmh 29.81 in1009.5 mb 0.00 in0.0 mm 0.00 in0.0 mm 0.00 in0.0 mm
10:11 AM 43.9°F6.6°C 46.3°F7.9°C 90% 2.4 mph W3.9 kmh W 2.4 mph3.9 kmh 29.81 in1009.5 mb 0.00 in0.0 mm 0.00 in0.0 mm 0.00 in0.0 mm
10:14 AM 44.4°F6.9°C 46.6°F8.1°C 90% 2.0 mph W3.2 kmh W 2.0 mph3.2 kmh 29.81 in1009.5 mb 0.00 in0.0 mm 0.00 in0.0 mm 0.00 in0.0 mm
10:17 AM 44.5°F6.9°C 46.6°F8.1°C 90% 5.3 mph NNW8.5 kmh NNW 5.3 mph8.5 kmh 29.81 in1009.5 mb 0.00 in0.0 mm 0.00 in0.0 mm 0.00 in0.0 mm
10:20 AM 44.7°F7.1°C 46.7°F8.2°C 90% 3.6 mph NNW5.8 kmh NNW 3.7 mph6.0 kmh 29.81 in1009.5 mb 0.00 in0.0 mm 0.00 in0.0 mm 0.00 in0.0 mm
10:23 AM 44.8°F7.1°C 47.0°F8.3°C 90% 1.2 mph W1.9 kmh W 1.2 mph1.9 kmh 29.81 in1009.5 mb 0.00 in0.0 mm 0.00 in0.0 mm 0.00 in0.0 mm
10:26 AM 44.9°F7.2°C 47.0°F8.3°C 90% 1.6 mph W2.6 kmh W 1.6 mph2.6 kmh 29.81 in1009.5 mb 0.00 in0.0 mm 0.00 in0.0 mm 0.00 in0.0 mm
10:29 AM 44.8°F7.1°C 47.0°F8.3°C 90% 4.8 mph NNW7.7 kmh NNW 4.8 mph7.7 kmh 29.81 in1009.5 mb 0.00 in0.0 mm 0.00 in0.0 mm 0.00 in0.0 mm
10:32 AM 44.7°F7.1°C 46.7°F8.2°C 89% 5.2 mph WSW8.4 kmh WSW 5.2 mph8.4 kmh 29.81 in1009.5 mb 0.00 in0.0 mm 0.00 in0.0 mm 0.00 in0.0 mm
10:35 AM 44.9°F7.2°C 46.7°F8.2°C 88% 2.0 mph W3.2 kmh W 2.0 mph3.2 kmh 29.81 in1009.5 mb 0.00 in0.0 mm 0.00 in0.0 mm 0.00 in0.0 mm
10:38 AM 44.9°F7.2°C 46.8°F8.2°C 89% 2.0 mph WSW3.2 kmh WSW 2.0 mph3.2 kmh 29.81 in1009.5 mb 0.00 in0.0 mm 0.00 in0.0 mm 0.00 in0.0 mm
10:41 AM 44.8°F7.1°C 47.0°F8.3°C 89% 2.4 mph W3.9 kmh W 2.4 mph3.9 kmh 29.81 in1009.5 mb 0.00 in0.0 mm 0.00 in0.0 mm 0.00 in0.0 mm
10:44 AM 44.8°F7.1°C 46.8°F8.2°C 89% 2.0 mph NNW3.2 kmh NNW 2.0 mph3.2 kmh 29.81 in1009.5 mb 0.00 in0.0 mm 0.00 in0.0 mm 0.00 in0.0 mm
10:47 AM 44.7°F7.1°C 46.6°F8.1°C 88% 2.0 mph WNW3.2 kmh WNW 2.0 mph3.2 kmh 29.81 in1009.5 mb 0.00 in0.0 mm 0.00 in0.0 mm 0.00 in0.0 mm
10:50 AM 44.7°F7.1°C 47.0°F8.3°C 89% 1.6 mph W2.6 kmh W 1.6 mph2.6 kmh 29.81 in1009.5 mb 0.00 in0.0 mm 0.00 in0.0 mm 0.00 in0.0 mm
10:53 AM 44.7°F7.1°C 46.9°F8.3°C 88% 2.0 mph W3.2 kmh W 2.0 mph3.2 kmh 29.81 in1009.5 mb 0.00 in0.0 mm 0.00 in0.0 mm 0.00 in0.0 mm
10:56 AM 44.6°F7.0°C 46.8°F8.2°C 88% 0.8 mph W1.3 kmh W 0.8 mph1.3 kmh 29.81 in1009.5 mb 0.00 in0.0 mm 0.00 in0.0 mm 0.00 in0.0 mm
10:59 AM 44.7°F7.1°C 46.9°F8.3°C 88% Calm Calm -- 29.81 in1009.5 mb 0.00 in0.0 mm 0.00 in0.0 mm 0.00 in0.0 mm
11:02 AM 44.8°F7.1°C 46.9°F8.3°C 88% 3.6 mph NNW5.8 kmh NNW 3.6 mph5.8 kmh 29.81 in1009.5 mb 0.00 in0.0 mm 0.00 in0.0 mm 0.00 in0.0 mm
11:05 AM 44.9°F7.2°C 46.8°F8.2°C 88% 0.4 mph W0.6 kmh W 0.4 mph0.6 kmh 29.81 in1009.5 mb 0.00 in0.0 mm 0.00 in0.0 mm 0.00 in0.0 mm
11:08 AM 45.5°F7.5°C 47.0°F8.3°C 88% 2.4 mph WNW3.9 kmh WNW 2.4 mph3.9 kmh 29.81 in1009.5 mb 0.00 in0.0 mm 0.00 in0.0 mm 0.00 in0.0 mm
11:11 AM 46.0°F7.8°C 47.2°F8.4°C 88% 2.4 mph W3.9 kmh W 2.4 mph3.9 kmh 29.81 in1009.5 mb 0.00 in0.0 mm 0.00 in0.0 mm 0.00 in0.0 mm
11:14 AM 45.7°F7.6°C 47.2°F8.4°C 88% 4.4 mph W7.1 kmh W 4.4 mph7.1 kmh 29.81 in1009.5 mb 0.00 in0.0 mm 0.00 in0.0 mm 0.00 in0.0 mm
11:17 AM 45.6°F7.6°C 46.9°F8.3°C 87% 4.0 mph W6.4 kmh W 4.0 mph6.4 kmh 29.81 in1009.5 mb 0.00 in0.0 mm 0.00 in0.0 mm 0.00 in0.0 mm
11:20 AM 45.8°F7.7°C 47.4°F8.6°C 88% 4.0 mph WNW6.4 kmh WNW 4.0 mph6.4 kmh 29.81 in1009.5 mb 0.00 in0.0 mm 0.00 in0.0 mm 0.00 in0.0 mm
11:23 AM 45.8°F7.7°C 47.0°F8.3°C 87% 4.7 mph W7.6 kmh W 4.7 mph7.6 kmh 29.81 in1009.5 mb 0.00 in0.0 mm 0.00 in0.0 mm 0.00 in0.0 mm
11:26 AM 46.0°F7.8°C 46.9°F8.3°C 86% 1.6 mph W2.6 kmh W 1.6 mph2.6 kmh 29.81 in1009.5 mb 0.00 in0.0 mm 0.00 in0.0 mm 0.00 in0.0 mm
11:29 AM 45.8°F7.7°C 46.9°F8.3°C 87% 3.2 mph NNW5.1 kmh NNW 3.2 mph5.1 kmh 29.81 in1009.5 mb 0.00 in0.0 mm 0.00 in0.0 mm 0.00 in0.0 mm
11:32 AM 46.1°F7.8°C 47.1°F8.4°C 87% 2.0 mph NNW3.2 kmh NNW 2.0 mph3.2 kmh 29.81 in1009.5 mb 0.00 in0.0 mm 0.00 in0.0 mm 0.00 in0.0 mm
11:35 AM 46.6°F8.1°C 47.4°F8.6°C 87% 1.2 mph SW1.9 kmh SW 1.2 mph1.9 kmh 29.81 in1009.5 mb 0.00 in0.0 mm 0.00 in0.0 mm 0.00 in0.0 mm
11:38 AM 46.4°F8.0°C 47.5°F8.6°C 87% 4.4 mph WNW7.1 kmh WNW 4.5 mph7.2 kmh 29.81 in1009.5 mb 0.00 in0.0 mm 0.00 in0.0 mm 0.00 in0.0 mm
11:41 AM 46.5°F8.1°C 47.5°F8.6°C 87% 4.4 mph W7.1 kmh W 4.5 mph7.2 kmh 29.81 in1009.5 mb 0.00 in0.0 mm 0.00 in0.0 mm 0.00 in0.0 mm
11:44 AM 46.5°F8.1°C 47.2°F8.4°C 86% 2.0 mph NW3.2 kmh NW 2.0 mph3.2 kmh 29.81 in1009.5 mb 0.00 in0.0 mm 0.00 in0.0 mm 0.00 in0.0 mm
11:47 AM 46.9°F8.3°C 47.3°F8.5°C 86% 2.0 mph W3.2 kmh W 2.0 mph3.2 kmh 29.81 in1009.5 mb 0.00 in0.0 mm 0.00 in0.0 mm 0.00 in0.0 mm
11:50 AM 46.5°F8.1°C 47.2°F8.4°C 85% 3.6 mph W5.8 kmh W 3.6 mph5.8 kmh 29.80 in1009.1 mb 0.00 in0.0 mm 0.00 in0.0 mm 0.00 in0.0 mm
11:53 AM 46.4°F8.0°C 47.3°F8.5°C 85% 4.0 mph NNW6.4 kmh NNW 4.1 mph6.6 kmh 29.80 in1009.1 mb 0.00 in0.0 mm 0.00 in0.0 mm 0.00 in0.0 mm
11:56 AM 46.5°F8.1°C 47.3°F8.5°C 85% 3.2 mph W5.1 kmh W 3.2 mph5.1 kmh 29.80 in1009.1 mb 0.00 in0.0 mm 0.00 in0.0 mm 0.00 in0.0 mm
11:59 AM 46.5°F8.1°C 47.2°F8.4°C 84% 3.2 mph W5.1 kmh W 3.3 mph5.3 kmh 29.80 in1009.1 mb 0.00 in0.0 mm 0.00 in0.0 mm 0.00 in0.0 mm
12:02 PM 46.5°F8.1°C 47.5°F8.6°C 85% 1.6 mph W2.6 kmh W 1.6 mph2.6 kmh 29.80 in1009.1 mb 0.00 in0.0 mm 0.00 in0.0 mm 0.00 in0.0 mm
12:05 PM 46.4°F8.0°C 47.2°F8.4°C 84% 1.6 mph W2.6 kmh W 1.6 mph2.6 kmh 29.80 in1009.1 mb 0.00 in0.0 mm 0.00 in0.0 mm 0.00 in0.0 mm
12:08 PM 46.5°F8.1°C 47.0°F8.3°C 84% 3.2 mph W5.1 kmh W 3.3 mph5.3 kmh 29.80 in1009.1 mb 0.00 in0.0 mm 0.00 in0.0 mm 0.00 in0.0 mm
12:11 PM 46.2°F7.9°C 47.1°F8.4°C 84% 4.4 mph NNW7.1 kmh NNW 4.5 mph7.2 kmh 29.81 in1009.5 mb 0.00 in0.0 mm 0.00 in0.0 mm 0.00 in0.0 mm
12:14 PM 46.5°F8.1°C 47.1°F8.4°C 84% 3.6 mph NNW5.8 kmh NNW 3.6 mph5.8 kmh 29.80 in1009.1 mb 0.00 in0.0 mm 0.00 in0.0 mm 0.00 in0.0 mm
12:17 PM 46.7°F8.2°C 46.8°F8.2°C 83% 4.8 mph NNW7.7 kmh NNW 4.8 mph7.7 kmh 29.80 in1009.1 mb 0.00 in0.0 mm 0.00 in0.0 mm 0.00 in0.0 mm
12:20 PM 46.6°F8.1°C 47.1°F8.4°C 84% 3.6 mph W5.8 kmh W 3.7 mph6.0 kmh 29.80 in1009.1 mb 0.00 in0.0 mm 0.00 in0.0 mm 0.00 in0.0 mm
12:23 PM 46.7°F8.2°C 47.2°F8.4°C 84% 2.8 mph WSW4.5 kmh WSW 2.9 mph4.7 kmh 29.80 in1009.1 mb 0.00 in0.0 mm 0.00 in0.0 mm 0.00 in0.0 mm
12:26 PM 46.6°F8.1°C 47.1°F8.4°C 84% 2.4 mph W3.9 kmh W 2.4 mph3.9 kmh 29.80 in1009.1 mb 0.00 in0.0 mm 0.00 in0.0 mm 0.00 in0.0 mm
12:29 PM 46.9°F8.3°C 47.3°F8.5°C 84% Calm Calm -- 29.80 in1009.1 mb 0.00 in0.0 mm 0.00 in0.0 mm 0.00 in0.0 mm
12:32 PM 46.7°F8.2°C 47.4°F8.6°C 84% 4.0 mph NW6.4 kmh NW 4.0 mph6.4 kmh 29.80 in1009.1 mb 0.00 in0.0 mm 0.00 in0.0 mm 0.00 in0.0 mm
12:35 PM 46.7°F8.2°C 47.1°F8.4°C 83% 4.0 mph W6.4 kmh W 4.1 mph6.6 kmh 29.79 in1008.8 mb 0.00 in0.0 mm 0.00 in0.0 mm 0.00 in0.0 mm
12:38 PM 46.6°F8.1°C 47.4°F8.6°C 84% 4.4 mph NNW7.1 kmh NNW 4.5 mph7.2 kmh 29.80 in1009.1 mb 0.00 in0.0 mm 0.00 in0.0 mm 0.00 in0.0 mm
12:41 PM 46.7°F8.2°C 47.4°F8.6°C 84% 3.6 mph WSW5.8 kmh WSW 3.6 mph5.8 kmh 29.80 in1009.1 mb 0.00 in0.0 mm 0.00 in0.0 mm 0.00 in0.0 mm
12:44 PM 46.9°F8.3°C 47.3°F8.5°C 84% 1.6 mph WNW2.6 kmh WNW 1.6 mph2.6 kmh 29.80 in1009.1 mb 0.00 in0.0 mm 0.00 in0.0 mm 0.00 in0.0 mm
12:47 PM 46.6°F8.1°C 47.7°F8.7°C 84% 1.6 mph W2.6 kmh W 1.6 mph2.6 kmh 29.79 in1008.8 mb 0.00 in0.0 mm 0.00 in0.0 mm 0.00 in0.0 mm
12:50 PM 46.6°F8.1°C 47.6°F8.7°C 84% 3.6 mph W5.8 kmh W 3.6 mph5.8 kmh 29.80 in1009.1 mb 0.00 in0.0 mm 0.00 in0.0 mm 0.00 in0.0 mm
12:53 PM 46.5°F8.1°C 47.4°F8.6°C 84% 2.8 mph WNW4.5 kmh WNW 2.9 mph4.7 kmh 29.80 in1009.1 mb 0.00 in0.0 mm 0.00 in0.0 mm 0.00 in0.0 mm
12:56 PM 46.4°F8.0°C 47.4°F8.6°C 84% 2.4 mph W3.9 kmh W 2.4 mph3.9 kmh 29.79 in1008.8 mb 0.00 in0.0 mm 0.00 in0.0 mm 0.00 in0.0 mm
12:59 PM 46.7°F8.2°C 47.4°F8.6°C 84% 5.7 mph NNW9.2 kmh NNW 5.7 mph9.2 kmh 29.80 in1009.1 mb 0.00 in0.0 mm 0.00 in0.0 mm 0.00 in0.0 mm
01:02 PM 46.5°F8.1°C 47.4°F8.6°C 83% 4.4 mph W7.1 kmh W 4.4 mph7.1 kmh 29.80 in1009.1 mb 0.00 in0.0 mm 0.00 in0.0 mm 0.00 in0.0 mm
01:05 PM 46.7°F8.2°C 47.5°F8.6°C 83% 0.4 mph W0.6 kmh W 0.4 mph0.6 kmh 29.80 in1009.1 mb 0.00 in0.0 mm 0.00 in0.0 mm 0.00 in0.0 mm
01:08 PM 46.9°F8.3°C 47.5°F8.6°C 84% 4.0 mph WNW6.4 kmh WNW 4.1 mph6.6 kmh 29.80 in1009.1 mb 0.00 in0.0 mm 0.00 in0.0 mm 0.00 in0.0 mm
01:11 PM 46.6°F8.1°C 47.5°F8.6°C 84% 2.4 mph WSW3.9 kmh WSW 2.4 mph3.9 kmh 29.80 in1009.1 mb 0.00 in0.0 mm 0.00 in0.0 mm 0.00 in0.0 mm
01:14 PM 46.4°F8.0°C 47.3°F8.5°C 83% 1.6 mph W2.6 kmh W 1.6 mph2.6 kmh 29.80 in1009.1 mb 0.00 in0.0 mm 0.00 in0.0 mm 0.00 in0.0 mm
01:17 PM 46.2°F7.9°C 47.4°F8.6°C 83% 4.0 mph SW6.4 kmh SW 4.0 mph6.4 kmh 29.80 in1009.1 mb 0.00 in0.0 mm 0.00 in0.0 mm 0.00 in0.0 mm
01:20 PM 46.3°F7.9°C 47.2°F8.4°C 83% 2.8 mph NNW4.5 kmh NNW 2.8 mph4.5 kmh 29.80 in1009.1 mb 0.00 in0.0 mm 0.00 in0.0 mm 0.00 in0.0 mm
01:23 PM 46.9°F8.3°C 47.4°F8.6°C 84% 3.2 mph W5.1 kmh W 3.2 mph5.1 kmh 29.80 in1009.1 mb 0.00 in0.0 mm 0.00 in0.0 mm 0.00 in0.0 mm
01:26 PM 46.5°F8.1°C 47.3°F8.5°C 83% 3.6 mph SW5.8 kmh SW 3.7 mph6.0 kmh 29.80 in1009.1 mb 0.00 in0.0 mm 0.00 in0.0 mm 0.00 in0.0 mm
01:29 PM 46.0°F7.8°C 47.5°F8.6°C 84% 3.6 mph SW5.8 kmh SW 3.6 mph5.8 kmh 29.80 in1009.1 mb 0.00 in0.0 mm 0.00 in0.0 mm 0.00 in0.0 mm
01:32 PM 45.8°F7.7°C 47.1°F8.4°C 83% 3.2 mph NNW5.1 kmh NNW 3.3 mph5.3 kmh 29.80 in1009.1 mb 0.00 in0.0 mm 0.00 in0.0 mm 0.00 in0.0 mm
01:35 PM 45.7°F7.6°C 47.0°F8.3°C 83% 3.6 mph WSW5.8 kmh WSW 3.7 mph6.0 kmh 29.80 in1009.1 mb 0.00 in0.0 mm 0.00 in0.0 mm 0.00 in0.0 mm
01:38 PM 45.6°F7.6°C 47.0°F8.3°C 83% 3.6 mph NNW5.8 kmh NNW 3.6 mph5.8 kmh 29.80 in1009.1 mb 0.00 in0.0 mm 0.00 in0.0 mm 0.00 in0.0 mm
01:41 PM 45.8°F7.7°C 47.1°F8.4°C 84% 2.8 mph WSW4.5 kmh WSW 2.9 mph4.7 kmh 29.80 in1009.1 mb 0.00 in0.0 mm 0.00 in0.0 mm 0.00 in0.0 mm
01:44 PM 46.1°F7.8°C 47.2°F8.4°C 84% 3.2 mph WSW5.1 kmh WSW 3.2 mph5.1 kmh 29.80 in1009.1 mb 0.00 in0.0 mm 0.00 in0.0 mm 0.00 in0.0 mm
01:47 PM 46.1°F7.8°C 47.3°F8.5°C 84% 1.2 mph NNW1.9 kmh NNW 1.2 mph1.9 kmh 29.80 in1009.1 mb 0.00 in0.0 mm 0.00 in0.0 mm 0.00 in0.0 mm
01:50 PM 46.9°F8.3°C 47.4°F8.6°C 84% 2.0 mph W3.2 kmh W 2.0 mph3.2 kmh 29.80 in1009.1 mb 0.00 in0.0 mm 0.00 in0.0 mm 0.00 in0.0 mm
01:53 PM 47.1°F8.4°C 47.8°F8.8°C 84% Calm Calm -- 29.80 in1009.1 mb 0.00 in0.0 mm 0.00 in0.0 mm 0.00 in0.0 mm
01:56 PM 46.7°F8.2°C 47.8°F8.8°C 84% 1.2 mph W1.9 kmh W 1.2 mph1.9 kmh 29.80 in1009.1 mb 0.00 in0.0 mm 0.00 in0.0 mm 0.00 in0.0 mm
01:59 PM 46.6°F8.1°C 47.9°F8.8°C 84% Calm Calm -- 29.80 in1009.1 mb 0.00 in0.0 mm 0.00 in0.0 mm 0.00 in0.0 mm
02:02 PM 46.3°F7.9°C 47.5°F8.6°C 83% 1.2 mph W1.9 kmh W 1.2 mph1.9 kmh 29.80 in1009.1 mb 0.00 in0.0 mm 0.00 in0.0 mm 0.00 in0.0 mm
02:05 PM 46.3°F7.9°C 47.5°F8.6°C 83% Calm Calm -- 29.80 in1009.1 mb 0.00 in0.0 mm 0.00 in0.0 mm 0.00 in0.0 mm
02:08 PM 46.1°F7.8°C 47.8°F8.8°C 83% Calm Calm -- 29.80 in1009.1 mb 0.00 in0.0 mm 0.00 in0.0 mm 0.00 in0.0 mm
02:11 PM 46.0°F7.8°C 47.6°F8.7°C 83% Calm Calm -- 29.80 in1009.1 mb 0.00 in0.0 mm 0.00 in0.0 mm 0.00 in0.0 mm
02:14 PM 45.6°F7.6°C 47.6°F8.7°C 83% Calm Calm -- 29.80 in1009.1 mb 0.00 in0.0 mm 0.00 in0.0 mm 0.00 in0.0 mm
02:17 PM 45.5°F7.5°C 47.5°F8.6°C 84% 0.4 mph SSE0.6 kmh SSE 0.4 mph0.6 kmh 29.80 in1009.1 mb 0.00 in0.0 mm 0.00 in0.0 mm 0.00 in0.0 mm
02:20 PM 45.6°F7.6°C 47.3°F8.5°C 84% Calm Calm -- 29.80 in1009.1 mb 0.00 in0.0 mm 0.00 in0.0 mm 0.00 in0.0 mm
02:23 PM 45.8°F7.7°C 46.9°F8.3°C 82% Calm Calm -- 29.79 in1008.8 mb 0.00 in0.0 mm 0.00 in0.0 mm 0.00 in0.0 mm
02:26 PM 45.8°F7.7°C 47.5°F8.6°C 84% Calm Calm -- 29.80 in1009.1 mb 0.00 in0.0 mm 0.00 in0.0 mm 0.00 in0.0 mm
02:29 PM 45.7°F7.6°C 47.5°F8.6°C 83% Calm Calm -- 29.80 in1009.1 mb 0.00 in0.0 mm 0.00 in0.0 mm 0.00 in0.0 mm
02:32 PM 46.0°F7.8°C 47.5°F8.6°C 84% Calm Calm -- 29.80 in1009.1 mb 0.00 in0.0 mm 0.00 in0.0 mm 0.00 in0.0 mm
02:35 PM 46.1°F7.8°C 47.8°F8.8°C 84% Calm Calm -- 29.80 in1009.1 mb 0.00 in0.0 mm 0.00 in0.0 mm 0.00 in0.0 mm
02:38 PM 46.0°F7.8°C 47.8°F8.8°C 83% Calm Calm -- 29.80 in1009.1 mb 0.00 in0.0 mm 0.00 in0.0 mm 0.00 in0.0 mm
02:41 PM 46.3°F7.9°C 47.6°F8.7°C 83% Calm Calm -- 29.80 in1009.1 mb 0.00 in0.0 mm 0.00 in0.0 mm 0.00 in0.0 mm
02:44 PM 46.3°F7.9°C 47.7°F8.7°C 84% Calm Calm -- 29.80 in1009.1 mb 0.00 in0.0 mm 0.00 in0.0 mm 0.00 in0.0 mm
02:47 PM 46.2°F7.9°C 48.0°F8.9°C 84% Calm Calm -- 29.80 in1009.1 mb 0.00 in0.0 mm 0.00 in0.0 mm 0.00 in0.0 mm
02:50 PM 46.3°F7.9°C 47.7°F8.7°C 84% Calm Calm -- 29.80 in1009.1 mb 0.00 in0.0 mm 0.00 in0.0 mm 0.00 in0.0 mm
02:56 PM 46.7°F8.2°C 47.9°F8.8°C 84% 1.2 mph NNW1.9 kmh NNW 1.2 mph1.9 kmh 29.80 in1009.1 mb 0.00 in0.0 mm 0.00 in0.0 mm 0.00 in0.0 mm
02:59 PM 46.7°F8.2°C 47.9°F8.8°C 84% 0.8 mph SE1.3 kmh SE 0.8 mph1.3 kmh 29.80 in1009.1 mb 0.00 in0.0 mm 0.00 in0.0 mm 0.00 in0.0 mm
03:02 PM 46.7°F8.2°C 48.0°F8.9°C 85% Calm Calm -- 29.80 in1009.1 mb 0.00 in0.0 mm 0.00 in0.0 mm 0.00 in0.0 mm
03:05 PM 46.7°F8.2°C 48.0°F8.9°C 85% Calm Calm -- 29.80 in1009.1 mb 0.00 in0.0 mm 0.00 in0.0 mm 0.00 in0.0 mm
03:08 PM 46.5°F8.1°C 48.0°F8.9°C 85% 1.2 mph SE1.9 kmh SE 1.2 mph1.9 kmh 29.79 in1008.8 mb 0.00 in0.0 mm 0.00 in0.0 mm 0.00 in0.0 mm
03:11 PM 46.4°F8.0°C 48.0°F8.9°C 84% Calm Calm -- 29.80 in1009.1 mb 0.00 in0.0 mm 0.00 in0.0 mm 0.00 in0.0 mm
03:14 PM 46.2°F7.9°C 48.0°F8.9°C 84% 0.8 mph ESE1.3 kmh ESE 0.8 mph1.3 kmh 29.80 in1009.1 mb 0.00 in0.0 mm 0.00 in0.0 mm 0.00 in0.0 mm
03:17 PM 45.7°F7.6°C 47.8°F8.8°C 84% Calm Calm -- 29.80 in1009.1 mb 0.00 in0.0 mm 0.00 in0.0 mm 0.00 in0.0 mm
03:20 PM 45.4°F7.4°C 47.8°F8.8°C 84% Calm Calm -- 29.80 in1009.1 mb 0.00 in0.0 mm 0.00 in0.0 mm 0.00 in0.0 mm
03:23 PM 44.8°F7.1°C 47.5°F8.6°C 83% Calm Calm -- 29.79 in1008.8 mb 0.00 in0.0 mm 0.00 in0.0 mm 0.00 in0.0 mm
03:26 PM 44.5°F6.9°C 47.3°F8.5°C 83% Calm Calm -- 29.79 in1008.8 mb 0.00 in0.0 mm 0.00 in0.0 mm 0.00 in0.0 mm
03:29 PM 44.3°F6.8°C 47.3°F8.5°C 83% Calm Calm -- 29.80 in1009.1 mb 0.00 in0.0 mm 0.00 in0.0 mm 0.00 in0.0 mm
03:32 PM 43.9°F6.6°C 47.1°F8.4°C 83% Calm Calm -- 29.79 in1008.8 mb 0.00 in0.0 mm 0.00 in0.0 mm 0.00 in0.0 mm
03:35 PM 43.7°F6.5°C 47.0°F8.3°C 83% Calm Calm -- 29.79 in1008.8 mb 0.00 in0.0 mm 0.00 in0.0 mm 0.00 in0.0 mm
03:38 PM 43.4°F6.3°C 46.7°F8.2°C 83% Calm Calm -- 29.79 in1008.8 mb 0.00 in0.0 mm 0.00 in0.0 mm 0.00 in0.0 mm
03:41 PM 43.3°F6.3°C 46.6°F8.1°C 83% Calm Calm -- 29.79 in1008.8 mb 0.00 in0.0 mm 0.00 in0.0 mm 0.00 in0.0 mm
03:44 PM 42.9°F6.1°C 46.3°F7.9°C 82% 0.8 mph ESE1.3 kmh ESE 0.8 mph1.3 kmh 29.79 in1008.8 mb 0.00 in0.0 mm 0.00 in0.0 mm 0.00 in0.0 mm
03:47 PM 42.8°F6.0°C 46.6°F8.1°C 84% 1.2 mph ESE1.9 kmh ESE 1.2 mph1.9 kmh 29.79 in1008.8 mb 0.00 in0.0 mm 0.00 in0.0 mm 0.00 in0.0 mm
03:50 PM 42.6°F5.9°C 46.5°F8.1°C 83% Calm Calm -- 29.79 in1008.8 mb 0.00 in0.0 mm 0.00 in0.0 mm 0.00 in0.0 mm
03:53 PM 42.5°F5.8°C 46.2°F7.9°C 84% Calm Calm -- 29.79 in1008.8 mb 0.00 in0.0 mm 0.00 in0.0 mm 0.00 in0.0 mm
03:56 PM 42.5°F5.8°C 46.3°F7.9°C 84% Calm Calm -- 29.79 in1008.8 mb 0.00 in0.0 mm 0.00 in0.0 mm 0.00 in0.0 mm
03:59 PM 42.1°F5.6°C 46.3°F7.9°C 84% Calm Calm -- 29.79 in1008.8 mb 0.00 in0.0 mm 0.00 in0.0 mm 0.00 in0.0 mm
04:02 PM 42.0°F5.6°C 46.2°F7.9°C 83% Calm Calm -- 29.79 in1008.8 mb 0.00 in0.0 mm 0.00 in0.0 mm 0.00 in0.0 mm
04:05 PM 41.3°F5.2°C 46.0°F7.8°C 83% Calm Calm -- 29.79 in1008.8 mb 0.00 in0.0 mm 0.00 in0.0 mm 0.00 in0.0 mm
04:08 PM 41.0°F5.0°C 46.0°F7.8°C 83% Calm Calm -- 29.79 in1008.8 mb 0.00 in0.0 mm 0.00 in0.0 mm 0.00 in0.0 mm
04:11 PM 40.7°F4.8°C 45.5°F7.5°C 83% Calm Calm -- 29.79 in1008.8 mb 0.00 in0.0 mm 0.00 in0.0 mm 0.00 in0.0 mm
04:14 PM 40.7°F4.8°C 45.2°F7.3°C 82% Calm Calm -- 29.79 in1008.8 mb 0.00 in0.0 mm 0.00 in0.0 mm 0.00 in0.0 mm
04:17 PM 39.8°F4.3°C 45.1°F7.3°C 82% Calm Calm -- 29.79 in1008.8 mb 0.00 in0.0 mm 0.00 in0.0 mm 0.00 in0.0 mm
04:20 PM 39.9°F4.4°C 44.8°F7.1°C 82% Calm Calm -- 29.79 in1008.8 mb 0.00 in0.0 mm 0.00 in0.0 mm 0.00 in0.0 mm
04:23 PM 39.5°F4.2°C 44.9°F7.2°C 82% Calm Calm -- 29.79 in1008.8 mb 0.00 in0.0 mm 0.00 in0.0 mm 0.00 in0.0 mm
04:26 PM 39.5°F4.2°C 44.8°F7.1°C 83% Calm Calm -- 29.79 in1008.8 mb 0.00 in0.0 mm 0.00 in0.0 mm 0.00 in0.0 mm
04:29 PM 38.5°F3.6°C 44.2°F6.8°C 82% Calm Calm -- 29.79 in1008.8 mb 0.00 in0.0 mm 0.00 in0.0 mm 0.00 in0.0 mm
04:32 PM 38.2°F3.4°C 43.7°F6.5°C 81% Calm Calm -- 29.79 in1008.8 mb 0.00 in0.0 mm 0.00 in0.0 mm 0.00 in0.0 mm
04:35 PM 38.3°F3.5°C 43.4°F6.3°C 81% Calm Calm -- 29.79 in1008.8 mb 0.00 in0.0 mm 0.00 in0.0 mm 0.00 in0.0 mm
04:38 PM 38.2°F3.4°C 43.6°F6.4°C 82% Calm Calm -- 29.79 in1008.8 mb 0.00 in0.0 mm 0.00 in0.0 mm 0.00 in0.0 mm
04:41 PM 37.9°F3.3°C 43.5°F6.4°C 82% Calm Calm -- 29.79 in1008.8 mb 0.00 in0.0 mm 0.00 in0.0 mm 0.00 in0.0 mm
04:44 PM 37.5°F3.1°C 43.1°F6.2°C 81% Calm Calm -- 29.79 in1008.8 mb 0.00 in0.0 mm 0.00 in0.0 mm 0.00 in0.0 mm
04:47 PM 37.5°F3.1°C 43.1°F6.2°C 82% Calm Calm -- 29.80 in1009.1 mb 0.00 in0.0 mm 0.00 in0.0 mm 0.00 in0.0 mm
04:50 PM 37.9°F3.3°C 43.0°F6.1°C 81% Calm Calm -- 29.79 in1008.8 mb 0.00 in0.0 mm 0.00 in0.0 mm 0.00 in0.0 mm
04:53 PM 36.8°F2.7°C 42.8°F6.0°C 81% Calm Calm -- 29.79 in1008.8 mb 0.00 in0.0 mm 0.00 in0.0 mm 0.00 in0.0 mm
04:56 PM 37.1°F2.8°C 42.9°F6.1°C 82% Calm Calm -- 29.79 in1008.8 mb 0.00 in0.0 mm 0.00 in0.0 mm 0.00 in0.0 mm
04:59 PM 36.5°F2.5°C 42.8°F6.0°C 82% Calm Calm -- 29.79 in1008.8 mb 0.00 in0.0 mm 0.00 in0.0 mm 0.00 in0.0 mm
05:02 PM 36.5°F2.5°C 42.4°F5.8°C 81% Calm Calm -- 29.79 in1008.8 mb 0.00 in0.0 mm 0.00 in0.0 mm 0.00 in0.0 mm
05:05 PM 35.9°F2.2°C 42.3°F5.7°C 81% Calm Calm -- 29.79 in1008.8 mb 0.00 in0.0 mm 0.00 in0.0 mm 0.00 in0.0 mm
05:08 PM 35.7°F2.1°C 41.9°F5.5°C 81% Calm Calm -- 29.79 in1008.8 mb 0.00 in0.0 mm 0.00 in0.0 mm 0.00 in0.0 mm
05:11 PM 35.9°F2.2°C 41.7°F5.4°C 82% Calm Calm -- 29.79 in1008.8 mb 0.00 in0.0 mm 0.00 in0.0 mm 0.00 in0.0 mm
05:14 PM 35.3°F1.8°C 41.3°F5.2°C 81% Calm Calm -- 29.79 in1008.8 mb 0.00 in0.0 mm 0.00 in0.0 mm 0.00 in0.0 mm
05:17 PM 35.2°F1.8°C 41.5°F5.3°C 82% Calm Calm -- 29.79 in1008.8 mb 0.00 in0.0 mm 0.00 in0.0 mm 0.00 in0.0 mm
05:20 PM 35.0°F1.7°C 41.1°F5.1°C 81% Calm Calm -- 29.79 in1008.8 mb 0.00 in0.0 mm 0.00 in0.0 mm 0.00 in0.0 mm
05:23 PM 34.7°F1.5°C 40.8°F4.9°C 81% Calm Calm -- 29.79 in1008.8 mb 0.00 in0.0 mm 0.00 in0.0 mm 0.00 in0.0 mm
05:26 PM 35.0°F1.7°C 40.6°F4.8°C 81% Calm Calm -- 29.79 in1008.8 mb 0.00 in0.0 mm 0.00 in0.0 mm 0.00 in0.0 mm
05:29 PM 34.8°F1.6°C 40.5°F4.7°C 81% Calm Calm -- 29.79 in1008.8 mb 0.00 in0.0 mm 0.00 in0.0 mm 0.00 in0.0 mm
05:32 PM 34.3°F1.3°C 40.4°F4.7°C 81% Calm Calm -- 29.79 in1008.8 mb 0.00 in0.0 mm 0.00 in0.0 mm 0.00 in0.0 mm
05:35 PM 34.1°F1.2°C 40.3°F4.6°C 81% Calm Calm -- 29.79 in1008.8 mb 0.00 in0.0 mm 0.00 in0.0 mm 0.00 in0.0 mm
05:38 PM 34.4°F1.3°C 40.4°F4.7°C 82% Calm Calm -- 29.79 in1008.8 mb 0.00 in0.0 mm 0.00 in0.0 mm 0.00 in0.0 mm
05:41 PM 33.6°F0.9°C 39.8°F4.3°C 81% Calm Calm -- 29.79 in1008.8 mb 0.00 in0.0 mm 0.00 in0.0 mm 0.00 in0.0 mm
05:44 PM 34.6°F1.4°C 40.0°F4.4°C 82% Calm Calm -- 29.79 in1008.8 mb 0.00 in0.0 mm 0.00 in0.0 mm 0.00 in0.0 mm
05:47 PM 34.0°F1.1°C 40.0°F4.4°C 82% Calm Calm -- 29.79 in1008.8 mb 0.00 in0.0 mm 0.00 in0.0 mm 0.00 in0.0 mm
05:50 PM 34.1°F1.2°C 39.9°F4.4°C 82% Calm Calm -- 29.79 in1008.8 mb 0.00 in0.0 mm 0.00 in0.0 mm 0.00 in0.0 mm
05:53 PM 34.1°F1.2°C 40.0°F4.4°C 82% Calm Calm -- 29.80 in1009.1 mb 0.00 in0.0 mm 0.00 in0.0 mm 0.00 in0.0 mm
05:56 PM 34.3°F1.3°C 40.2°F4.6°C 83% Calm Calm -- 29.79 in1008.8 mb 0.00 in0.0 mm 0.00 in0.0 mm 0.00 in0.0 mm
05:59 PM 33.9°F1.1°C 39.8°F4.3°C 82% Calm Calm -- 29.80 in1009.1 mb 0.00 in0.0 mm 0.00 in0.0 mm 0.00 in0.0 mm
06:02 PM 32.8°F0.4°C 39.4°F4.1°C 81% Calm Calm -- 29.80 in1009.1 mb 0.00 in0.0 mm 0.00 in0.0 mm 0.00 in0.0 mm
06:05 PM 33.2°F0.7°C 39.4°F4.1°C 81% Calm Calm -- 29.80 in1009.1 mb 0.00 in0.0 mm 0.00 in0.0 mm 0.00 in0.0 mm
06:08 PM 32.8°F0.4°C 38.8°F3.8°C 80% Calm Calm -- 29.80 in1009.1 mb 0.00 in0.0 mm 0.00 in0.0 mm 0.00 in0.0 mm
06:11 PM 33.1°F0.6°C 38.9°F3.8°C 81% Calm Calm -- 29.80 in1009.1 mb 0.00 in0.0 mm 0.00 in0.0 mm 0.00 in0.0 mm
06:14 PM 33.1°F0.6°C 39.1°F3.9°C 82% Calm Calm -- 29.80 in1009.1 mb 0.00 in0.0 mm 0.00 in0.0 mm 0.00 in0.0 mm
06:17 PM 32.9°F0.5°C 39.3°F4.1°C 83% Calm Calm -- 29.80 in1009.1 mb 0.00 in0.0 mm 0.00 in0.0 mm 0.00 in0.0 mm
06:20 PM 32.5°F0.3°C 38.6°F3.7°C 81% Calm Calm -- 29.80 in1009.1 mb 0.00 in0.0 mm 0.00 in0.0 mm 0.00 in0.0 mm
06:23 PM 32.5°F0.3°C 38.6°F3.7°C 82% Calm Calm -- 29.80 in1009.1 mb 0.00 in0.0 mm 0.00 in0.0 mm 0.00 in0.0 mm
06:26 PM 32.7°F0.4°C 38.4°F3.6°C 82% Calm Calm -- 29.80 in1009.1 mb 0.00 in0.0 mm 0.00 in0.0 mm 0.00 in0.0 mm
06:29 PM 32.6°F0.3°C 38.4°F3.6°C 82% Calm Calm -- 29.80 in1009.1 mb 0.00 in0.0 mm 0.00 in0.0 mm 0.00 in0.0 mm
06:32 PM 32.6°F0.3°C 38.7°F3.7°C 83% Calm Calm -- 29.80 in1009.1 mb 0.00 in0.0 mm 0.00 in0.0 mm 0.00 in0.0 mm
06:35 PM 32.5°F0.3°C 38.5°F3.6°C 83% Calm Calm -- 29.80 in1009.1 mb 0.00 in0.0 mm 0.00 in0.0 mm 0.00 in0.0 mm
06:41 PM 32.5°F0.3°C 38.3°F3.5°C 83% Calm Calm -- 29.79 in1008.8 mb 0.00 in0.0 mm 0.00 in0.0 mm 0.00 in0.0 mm
06:44 PM 32.0°F0.0°C 38.2°F3.4°C 83% Calm Calm -- 29.79 in1008.8 mb 0.00 in0.0 mm 0.00 in0.0 mm 0.00 in0.0 mm
06:47 PM 31.9°F-0.1°C 38.1°F3.4°C 83% Calm Calm -- 29.79 in1008.8 mb 0.00 in0.0 mm 0.00 in0.0 mm 0.00 in0.0 mm
06:50 PM 31.2°F-0.4°C 37.3°F2.9°C 82% Calm Calm -- 29.79 in1008.8 mb 0.00 in0.0 mm 0.00 in0.0 mm 0.00 in0.0 mm
06:53 PM 31.0°F-0.6°C 37.4°F3.0°C 82% Calm Calm -- 29.79 in1008.8 mb 0.00 in0.0 mm 0.00 in0.0 mm 0.00 in0.0 mm
06:56 PM 31.6°F-0.2°C 37.6°F3.1°C 83% Calm Calm -- 29.79 in1008.8 mb 0.00 in0.0 mm 0.00 in0.0 mm 0.00 in0.0 mm
06:59 PM 31.7°F-0.2°C 37.5°F3.1°C 84% Calm Calm -- 29.79 in1008.8 mb 0.00 in0.0 mm 0.00 in0.0 mm 0.00 in0.0 mm
07:02 PM 31.6°F-0.2°C 37.5°F3.1°C 83% Calm Calm -- 29.79 in1008.8 mb 0.00 in0.0 mm 0.00 in0.0 mm 0.00 in0.0 mm
07:05 PM 31.3°F-0.4°C 37.4°F3.0°C 83% Calm Calm -- 29.79 in1008.8 mb 0.00 in0.0 mm 0.00 in0.0 mm 0.00 in0.0 mm
07:08 PM 31.4°F-0.3°C 37.3°F2.9°C 84% Calm Calm -- 29.79 in1008.8 mb 0.00 in0.0 mm 0.00 in0.0 mm 0.00 in0.0 mm
07:14 PM 31.6°F-0.2°C 37.5°F3.1°C 84% Calm Calm -- 29.79 in1008.8 mb 0.00 in0.0 mm 0.00 in0.0 mm 0.00 in0.0 mm
07:17 PM 31.7°F-0.2°C 37.6°F3.1°C 85% Calm Calm -- 29.79 in1008.8 mb 0.00 in0.0 mm 0.00 in0.0 mm 0.00 in0.0 mm
07:20 PM 31.4°F-0.3°C 37.6°F3.1°C 85% Calm Calm -- 29.79 in1008.8 mb 0.00 in0.0 mm 0.00 in0.0 mm 0.00 in0.0 mm
07:23 PM 31.7°F-0.2°C 37.7°F3.2°C 85% Calm Calm -- 29.79 in1008.8 mb 0.00 in0.0 mm 0.00 in0.0 mm 0.00 in0.0 mm
07:26 PM 31.4°F-0.3°C 37.7°F3.2°C 85% Calm Calm -- 29.79 in1008.8 mb 0.00 in0.0 mm 0.00 in0.0 mm 0.00 in0.0 mm
07:29 PM 31.2°F-0.4°C 37.6°F3.1°C 85% Calm Calm -- 29.79 in1008.8 mb 0.00 in0.0 mm 0.00 in0.0 mm 0.00 in0.0 mm
07:32 PM 31.1°F-0.5°C 37.3°F2.9°C 85% Calm Calm -- 29.79 in1008.8 mb 0.00 in0.0 mm 0.00 in0.0 mm 0.00 in0.0 mm
07:35 PM 31.1°F-0.5°C 37.1°F2.8°C 84% Calm Calm -- 29.79 in1008.8 mb 0.00 in0.0 mm 0.00 in0.0 mm 0.00 in0.0 mm
07:38 PM 30.7°F-0.7°C 36.6°F2.6°C 83% Calm Calm -- 29.79 in1008.8 mb 0.00 in0.0 mm 0.00 in0.0 mm 0.00 in0.0 mm
07:41 PM 30.7°F-0.7°C 36.7°F2.6°C 84% Calm Calm -- 29.79 in1008.8 mb 0.00 in0.0 mm 0.00 in0.0 mm 0.00 in0.0 mm
07:44 PM 30.1°F-1.1°C 36.5°F2.5°C 84% Calm Calm -- 29.79 in1008.8 mb 0.00 in0.0 mm 0.00 in0.0 mm 0.00 in0.0 mm
07:47 PM 30.1°F-1.1°C 36.3°F2.4°C 84% Calm Calm -- 29.79 in1008.8 mb 0.00 in0.0 mm 0.00 in0.0 mm 0.00 in0.0 mm
07:50 PM 30.1°F-1.1°C 36.2°F2.3°C 84% Calm Calm -- 29.79 in1008.8 mb 0.00 in0.0 mm 0.00 in0.0 mm 0.00 in0.0 mm
07:53 PM 30.3°F-0.9°C 36.3°F2.4°C 84% Calm Calm -- 29.79 in1008.8 mb 0.00 in0.0 mm 0.00 in0.0 mm 0.00 in0.0 mm
07:56 PM 30.4°F-0.9°C 36.2°F2.3°C 84% Calm Calm -- 29.79 in1008.8 mb 0.00 in0.0 mm 0.00 in0.0 mm 0.00 in0.0 mm
07:59 PM 30.4°F-0.9°C 36.1°F2.3°C 85% Calm Calm -- 29.79 in1008.8 mb 0.00 in0.0 mm 0.00 in0.0 mm 0.00 in0.0 mm
08:02 PM 30.5°F-0.8°C 36.5°F2.5°C 85% Calm Calm -- 29.79 in1008.8 mb 0.00 in0.0 mm 0.00 in0.0 mm 0.00 in0.0 mm
08:05 PM 30.2°F-1.0°C 36.5°F2.5°C 85% Calm Calm -- 29.78 in1008.5 mb 0.00 in0.0 mm 0.00 in0.0 mm 0.00 in0.0 mm
08:08 PM 30.4°F-0.9°C 36.2°F2.3°C 85% Calm Calm -- 29.78 in1008.5 mb 0.00 in0.0 mm 0.00 in0.0 mm 0.00 in0.0 mm
08:11 PM 30.2°F-1.0°C 36.5°F2.5°C 85% Calm Calm -- 29.78 in1008.5 mb 0.00 in0.0 mm 0.00 in0.0 mm 0.00 in0.0 mm
08:14 PM 30.1°F-1.1°C 36.2°F2.3°C 85% Calm Calm -- 29.78 in1008.5 mb 0.00 in0.0 mm 0.00 in0.0 mm 0.00 in0.0 mm
08:17 PM 29.8°F-1.2°C 36.0°F2.2°C 85% Calm Calm -- 29.78 in1008.5 mb 0.00 in0.0 mm 0.00 in0.0 mm 0.00 in0.0 mm
08:20 PM 29.8°F-1.2°C 36.0°F2.2°C 85% Calm Calm -- 29.79 in1008.8 mb 0.00 in0.0 mm 0.00 in0.0 mm 0.00 in0.0 mm
08:23 PM 29.8°F-1.2°C 35.8°F2.1°C 85% Calm Calm -- 29.78 in1008.5 mb 0.00 in0.0 mm 0.00 in0.0 mm 0.00 in0.0 mm
08:26 PM 29.8°F-1.2°C 35.9°F2.2°C 85% Calm Calm -- 29.78 in1008.5 mb 0.00 in0.0 mm 0.00 in0.0 mm 0.00 in0.0 mm
08:29 PM 30.0°F-1.1°C 35.5°F1.9°C 85% Calm Calm -- 29.79 in1008.8 mb 0.00 in0.0 mm 0.00 in0.0 mm 0.00 in0.0 mm
08:32 PM 30.1°F-1.1°C 36.0°F2.2°C 86% Calm Calm -- 29.78 in1008.5 mb 0.00 in0.0 mm 0.00 in0.0 mm 0.00 in0.0 mm
08:35 PM 29.6°F-1.3°C 35.6°F2.0°C 85% Calm Calm -- 29.78 in1008.5 mb 0.00 in0.0 mm 0.00 in0.0 mm 0.00 in0.0 mm
08:38 PM 29.8°F-1.2°C 35.8°F2.1°C 86% Calm Calm -- 29.78 in1008.5 mb 0.00 in0.0 mm 0.00 in0.0 mm 0.00 in0.0 mm
08:41 PM 29.3°F-1.5°C 35.6°F2.0°C 85% Calm Calm -- 29.78 in1008.5 mb 0.00 in0.0 mm 0.00 in0.0 mm 0.00 in0.0 mm
08:50 PM 29.6°F-1.3°C 35.2°F1.8°C 85% Calm Calm -- 29.77 in1008.1 mb 0.00 in0.0 mm 0.00 in0.0 mm 0.00 in0.0 mm
08:53 PM 29.4°F-1.4°C 35.2°F1.8°C 85% Calm Calm -- 29.77 in1008.1 mb 0.00 in0.0 mm 0.00 in0.0 mm 0.00 in0.0 mm
08:56 PM 29.2°F-1.6°C 35.3°F1.8°C 85% Calm Calm -- 29.77 in1008.1 mb 0.00 in0.0 mm 0.00 in0.0 mm 0.00 in0.0 mm
08:59 PM 29.2°F-1.6°C 35.1°F1.7°C 85% Calm Calm -- 29.77 in1008.1 mb 0.00 in0.0 mm 0.00 in0.0 mm 0.00 in0.0 mm
09:02 PM 29.4°F-1.4°C 35.0°F1.7°C 85% Calm Calm -- 29.77 in1008.1 mb 0.00 in0.0 mm 0.00 in0.0 mm 0.00 in0.0 mm
09:05 PM 29.0°F-1.7°C 35.1°F1.7°C 86% Calm Calm -- 29.77 in1008.1 mb 0.00 in0.0 mm 0.00 in0.0 mm 0.00 in0.0 mm
09:08 PM 29.1°F-1.6°C 35.1°F1.7°C 86% Calm Calm -- 29.77 in1008.1 mb 0.00 in0.0 mm 0.00 in0.0 mm 0.00 in0.0 mm
09:11 PM 29.2°F-1.6°C 34.9°F1.6°C 86% Calm Calm -- 29.77 in1008.1 mb 0.00 in0.0 mm 0.00 in0.0 mm 0.00 in0.0 mm
09:14 PM 29.6°F-1.3°C 34.9°F1.6°C 86% Calm Calm -- 29.77 in1008.1 mb 0.00 in0.0 mm 0.00 in0.0 mm 0.00 in0.0 mm
09:17 PM 30.2°F-1.0°C 35.1°F1.7°C 87% Calm Calm -- 29.77 in1008.1 mb 0.00 in0.0 mm 0.00 in0.0 mm 0.00 in0.0 mm
09:20 PM 29.6°F-1.3°C 35.2°F1.8°C 86% Calm Calm -- 29.77 in1008.1 mb 0.00 in0.0 mm 0.00 in0.0 mm 0.00 in0.0 mm
09:23 PM 29.3°F-1.5°C 35.0°F1.7°C 87% Calm Calm -- 29.77 in1008.1 mb 0.00 in0.0 mm 0.00 in0.0 mm 0.00 in0.0 mm
09:26 PM 28.9°F-1.7°C 34.7°F1.5°C 86% Calm Calm -- 29.77 in1008.1 mb 0.00 in0.0 mm 0.00 in0.0 mm 0.00 in0.0 mm
09:29 PM 28.9°F-1.7°C 34.9°F1.6°C 86% Calm Calm -- 29.77 in1008.1 mb 0.00 in0.0 mm 0.00 in0.0 mm 0.00 in0.0 mm
09:32 PM 28.9°F-1.7°C 34.6°F1.4°C 86% Calm Calm -- 29.77 in1008.1 mb 0.00 in0.0 mm 0.00 in0.0 mm 0.00 in0.0 mm
09:38 PM 28.9°F-1.7°C 34.6°F1.4°C 86% Calm Calm -- 29.77 in1008.1 mb 0.00 in0.0 mm 0.00 in0.0 mm 0.00 in0.0 mm
09:41 PM 28.5°F-1.9°C 34.5°F1.4°C 86% Calm Calm -- 29.77 in1008.1 mb 0.00 in0.0 mm 0.00 in0.0 mm 0.00 in0.0 mm
09:44 PM 28.7°F-1.8°C 34.4°F1.3°C 86% Calm Calm -- 29.77 in1008.1 mb 0.00 in0.0 mm 0.00 in0.0 mm 0.00 in0.0 mm
09:47 PM 28.9°F-1.7°C 34.3°F1.3°C 86% Calm Calm -- 29.77 in1008.1 mb 0.00 in0.0 mm 0.00 in0.0 mm 0.00 in0.0 mm
09:50 PM 29.1°F-1.6°C 34.5°F1.4°C 87% Calm Calm -- 29.77 in1008.1 mb 0.00 in0.0 mm 0.00 in0.0 mm 0.00 in0.0 mm
09:53 PM 28.7°F-1.8°C 34.5°F1.4°C 87% Calm Calm -- 29.77 in1008.1 mb 0.00 in0.0 mm 0.00 in0.0 mm 0.00 in0.0 mm
09:56 PM 28.5°F-1.9°C 34.3°F1.3°C 87% Calm Calm -- 29.77 in1008.1 mb 0.00 in0.0 mm 0.00 in0.0 mm 0.00 in0.0 mm
09:59 PM 29.2°F-1.6°C 34.4°F1.3°C 87% Calm Calm -- 29.77 in1008.1 mb 0.00 in0.0 mm 0.00 in0.0 mm 0.00 in0.0 mm
10:02 PM 29.1°F-1.6°C 34.6°F1.4°C 87% Calm Calm -- 29.77 in1008.1 mb 0.00 in0.0 mm 0.00 in0.0 mm 0.00 in0.0 mm
10:05 PM 28.6°F-1.9°C 34.5°F1.4°C 87% Calm Calm -- 29.77 in1008.1 mb 0.00 in0.0 mm 0.00 in0.0 mm 0.00 in0.0 mm
10:08 PM 28.3°F-2.1°C 34.2°F1.2°C 87% Calm Calm -- 29.77 in1008.1 mb 0.00 in0.0 mm 0.00 in0.0 mm 0.00 in0.0 mm
10:11 PM 28.4°F-2.0°C 34.2°F1.2°C 87% Calm Calm -- 29.77 in1008.1 mb 0.00 in0.0 mm 0.00 in0.0 mm 0.00 in0.0 mm
10:14 PM 28.4°F-2.0°C 34.0°F1.1°C 87% Calm Calm -- 29.76 in1007.8 mb 0.00 in0.0 mm 0.00 in0.0 mm 0.00 in0.0 mm
10:17 PM 28.3°F-2.1°C 34.1°F1.2°C 87% Calm Calm -- 29.77 in1008.1 mb 0.00 in0.0 mm 0.00 in0.0 mm 0.00 in0.0 mm
10:20 PM 28.3°F-2.1°C 34.2°F1.2°C 87% Calm Calm -- 29.77 in1008.1 mb 0.00 in0.0 mm 0.00 in0.0 mm 0.00 in0.0 mm
10:23 PM 28.5°F-1.9°C 34.2°F1.2°C 87% Calm Calm -- 29.77 in1008.1 mb 0.00 in0.0 mm 0.00 in0.0 mm 0.00 in0.0 mm
10:26 PM 29.1°F-1.6°C 34.2°F1.2°C 87% Calm Calm -- 29.77 in1008.1 mb 0.00 in0.0 mm 0.00 in0.0 mm 0.00 in0.0 mm
10:29 PM 30.1°F-1.1°C 34.1°F1.2°C 88% Calm Calm -- 29.76 in1007.8 mb 0.00 in0.0 mm 0.00 in0.0 mm 0.00 in0.0 mm
10:32 PM 29.8°F-1.2°C 34.1°F1.2°C 88% Calm Calm -- 29.76 in1007.8 mb 0.00 in0.0 mm 0.00 in0.0 mm 0.00 in0.0 mm
10:35 PM 28.6°F-1.9°C 34.0°F1.1°C 87% Calm Calm -- 29.77 in1008.1 mb 0.00 in0.0 mm 0.00 in0.0 mm 0.00 in0.0 mm
10:38 PM 28.5°F-1.9°C 34.1°F1.2°C 87% Calm Calm -- 29.76 in1007.8 mb 0.00 in0.0 mm 0.00 in0.0 mm 0.00 in0.0 mm
10:41 PM 28.9°F-1.7°C 34.0°F1.1°C 87% Calm Calm -- 29.76 in1007.8 mb 0.00 in0.0 mm 0.00 in0.0 mm 0.00 in0.0 mm
10:44 PM 28.9°F-1.7°C 34.0°F1.1°C 88% Calm Calm -- 29.76 in1007.8 mb 0.00 in0.0 mm 0.00 in0.0 mm 0.00 in0.0 mm
10:47 PM 28.5°F-1.9°C 34.1°F1.2°C 88% Calm Calm -- 29.76 in1007.8 mb 0.00 in0.0 mm 0.00 in0.0 mm 0.00 in0.0 mm
10:50 PM 28.3°F-2.1°C 33.8°F1.0°C 87% Calm Calm -- 29.76 in1007.8 mb 0.00 in0.0 mm 0.00 in0.0 mm 0.00 in0.0 mm
10:53 PM 28.5°F-1.9°C 34.1°F1.2°C 88% Calm Calm -- 29.76 in1007.8 mb 0.00 in0.0 mm 0.00 in0.0 mm 0.00 in0.0 mm
10:56 PM 28.4°F-2.0°C 33.8°F1.0°C 88% Calm Calm -- 29.76 in1007.8 mb 0.00 in0.0 mm 0.00 in0.0 mm 0.00 in0.0 mm
10:59 PM 28.4°F-2.0°C 34.0°F1.1°C 88% Calm Calm -- 29.76 in1007.8 mb 0.00 in0.0 mm 0.00 in0.0 mm 0.00 in0.0 mm
11:02 PM 28.1°F-2.2°C 33.8°F1.0°C 87% Calm Calm -- 29.76 in1007.8 mb 0.00 in0.0 mm 0.00 in0.0 mm 0.00 in0.0 mm
11:05 PM 27.8°F-2.3°C 33.4°F0.8°C 86% Calm Calm -- 29.76 in1007.8 mb 0.00 in0.0 mm 0.00 in0.0 mm 0.00 in0.0 mm
11:08 PM 28.0°F-2.2°C 33.5°F0.8°C 87% Calm Calm -- 29.76 in1007.8 mb 0.00 in0.0 mm 0.00 in0.0 mm 0.00 in0.0 mm
11:11 PM 27.8°F-2.3°C 33.1°F0.6°C 87% Calm Calm -- 29.76 in1007.8 mb 0.00 in0.0 mm 0.00 in0.0 mm 0.00 in0.0 mm
11:14 PM 27.6°F-2.4°C 33.1°F0.6°C 86% Calm Calm -- 29.76 in1007.8 mb 0.00 in0.0 mm 0.00 in0.0 mm 0.00 in0.0 mm
11:20 PM 28.0°F-2.2°C 32.9°F0.5°C 86% Calm Calm -- 29.76 in1007.8 mb 0.00 in0.0 mm 0.00 in0.0 mm 0.00 in0.0 mm
11:23 PM 27.7°F-2.4°C 33.0°F0.6°C 86% Calm Calm -- 29.76 in1007.8 mb 0.00 in0.0 mm 0.00 in0.0 mm 0.00 in0.0 mm
11:26 PM 27.5°F-2.5°C 33.3°F0.7°C 87% Calm Calm -- 29.76 in1007.8 mb 0.00 in0.0 mm 0.00 in0.0 mm 0.00 in0.0 mm
11:29 PM 27.8°F-2.3°C 33.2°F0.7°C 87% Calm Calm -- 29.76 in1007.8 mb 0.00 in0.0 mm 0.00 in0.0 mm 0.00 in0.0 mm
11:32 PM 27.8°F-2.3°C 33.2°F0.7°C 88% Calm Calm -- 29.76 in1007.8 mb 0.00 in0.0 mm 0.00 in0.0 mm 0.00 in0.0 mm
11:35 PM 27.8°F-2.3°C 33.2°F0.7°C 88% Calm Calm -- 29.76 in1007.8 mb 0.00 in0.0 mm 0.00 in0.0 mm 0.00 in0.0 mm
11:38 PM 27.8°F-2.3°C 33.1°F0.6°C 87% Calm Calm -- 29.76 in1007.8 mb 0.00 in0.0 mm 0.00 in0.0 mm 0.00 in0.0 mm
11:41 PM 28.0°F-2.2°C 33.3°F0.7°C 88% Calm Calm -- 29.76 in1007.8 mb 0.00 in0.0 mm 0.00 in0.0 mm 0.00 in0.0 mm
11:44 PM 28.0°F-2.2°C 33.2°F0.7°C 88% Calm Calm -- 29.76 in1007.8 mb 0.00 in0.0 mm 0.00 in0.0 mm 0.00 in0.0 mm
11:47 PM 27.6°F-2.4°C 33.2°F0.7°C 88% Calm Calm -- 29.76 in1007.8 mb 0.00 in0.0 mm 0.00 in0.0 mm 0.00 in0.0 mm
11:50 PM 27.7°F-2.4°C 33.2°F0.7°C 88% Calm Calm -- 29.76 in1007.8 mb 0.00 in0.0 mm 0.00 in0.0 mm 0.00 in0.0 mm
11:53 PM 27.7°F-2.4°C 33.1°F0.6°C 88% Calm Calm -- 29.76 in1007.8 mb 0.00 in0.0 mm 0.00 in0.0 mm 0.00 in0.0 mm
11:56 PM 27.3°F-2.6°C 33.1°F0.6°C 88% Calm Calm -- 29.76 in1007.8 mb 0.00 in0.0 mm 0.00 in0.0 mm 0.00 in0.0 mm
11:59 PM 28.0°F-2.2°C 33.1°F0.6°C 88% Calm Calm -- 29.76 in1007.8 mb 0.00 in0.0 mm 0.00 in0.0 mm 0.00 in0.0 mm